<?xml version="1.0" encoding="UTF-8" standalone="no" ?>
<gpx xmlns="http://www.topografix.com/GPX/1/1" xmlns:xsi="http://www.w3.org/2001/XMLSchema-instance" xsi:schemaLocation="http://www.topografix.com/GPX/1/1 http://www.topografix.com/GPX/1/1/gpx.xsd" version="1.1" creator="VisuGPX - https://www.visugpx.com">
  <metadata>
    <name>Course Nature Gouzens 5km</name>
    <desc><![CDATA[Course Nature à Gouzens de 5km
Courir en Volvestre
Plus d'informations sur notre site : http://leo.courir-en-volvestre.fr]]></desc>
  </metadata>
  <trk>
    <name><![CDATA[Move]]></name>
    <trkseg>
      <trkpt lat="43.18612" lon="1.18801">
        <ele>297.8</ele>
        <time>2019-02-24T08:41:12.000Z</time>
      </trkpt>
      <trkpt lat="43.18606" lon="1.18803">
        <ele>298.1</ele>
        <time>2019-02-24T08:41:18.000Z</time>
      </trkpt>
      <trkpt lat="43.18602" lon="1.18803">
        <ele>300</ele>
        <time>2019-02-24T08:41:20.000Z</time>
      </trkpt>
      <trkpt lat="43.18599" lon="1.18804">
        <ele>300</ele>
        <time>2019-02-24T08:41:21.000Z</time>
      </trkpt>
      <trkpt lat="43.18595" lon="1.18803">
        <ele>300</ele>
        <time>2019-02-24T08:41:22.000Z</time>
      </trkpt>
      <trkpt lat="43.18592" lon="1.18804">
        <ele>300</ele>
        <time>2019-02-24T08:41:23.000Z</time>
      </trkpt>
      <trkpt lat="43.1859" lon="1.18804">
        <ele>300</ele>
        <time>2019-02-24T08:41:24.000Z</time>
      </trkpt>
      <trkpt lat="43.18588" lon="1.18804">
        <ele>300.3846175486</ele>
        <time>2019-02-24T08:41:25.000Z</time>
      </trkpt>
      <trkpt lat="43.18585" lon="1.18806">
        <ele>301</ele>
        <time>2019-02-24T08:41:26.000Z</time>
      </trkpt>
      <trkpt lat="43.18583" lon="1.18807">
        <ele>301</ele>
        <time>2019-02-24T08:41:27.000Z</time>
      </trkpt>
      <trkpt lat="43.1858" lon="1.18809">
        <ele>301</ele>
        <time>2019-02-24T08:41:28.000Z</time>
      </trkpt>
      <trkpt lat="43.18578" lon="1.1881">
        <ele>301</ele>
        <time>2019-02-24T08:41:29.000Z</time>
      </trkpt>
      <trkpt lat="43.18576" lon="1.18812">
        <ele>301</ele>
        <time>2019-02-24T08:41:30.000Z</time>
      </trkpt>
      <trkpt lat="43.18574" lon="1.18813">
        <ele>301</ele>
        <time>2019-02-24T08:41:31.000Z</time>
      </trkpt>
      <trkpt lat="43.18572" lon="1.18814">
        <ele>301</ele>
        <time>2019-02-24T08:41:32.000Z</time>
      </trkpt>
      <trkpt lat="43.1857" lon="1.18816">
        <ele>301</ele>
        <time>2019-02-24T08:41:33.000Z</time>
      </trkpt>
      <trkpt lat="43.18567" lon="1.18817">
        <ele>301.33333333333</ele>
        <time>2019-02-24T08:41:34.000Z</time>
      </trkpt>
      <trkpt lat="43.18564" lon="1.18819">
        <ele>302</ele>
        <time>2019-02-24T08:41:35.000Z</time>
      </trkpt>
      <trkpt lat="43.18562" lon="1.18821">
        <ele>302</ele>
        <time>2019-02-24T08:41:36.000Z</time>
      </trkpt>
      <trkpt lat="43.1856" lon="1.18822">
        <ele>302</ele>
        <time>2019-02-24T08:41:37.000Z</time>
      </trkpt>
      <trkpt lat="43.18558" lon="1.18824">
        <ele>302</ele>
        <time>2019-02-24T08:41:38.000Z</time>
      </trkpt>
      <trkpt lat="43.18555" lon="1.18826">
        <ele>301.60215260956</ele>
        <time>2019-02-24T08:41:39.000Z</time>
      </trkpt>
      <trkpt lat="43.18553" lon="1.18828">
        <ele>301</ele>
        <time>2019-02-24T08:41:40.000Z</time>
      </trkpt>
      <trkpt lat="43.18551" lon="1.1883">
        <ele>301.3488323634</ele>
        <time>2019-02-24T08:41:41.000Z</time>
      </trkpt>
      <trkpt lat="43.18549" lon="1.18831">
        <ele>302</ele>
        <time>2019-02-24T08:41:42.000Z</time>
      </trkpt>
      <trkpt lat="43.18547" lon="1.18833">
        <ele>302</ele>
        <time>2019-02-24T08:41:43.000Z</time>
      </trkpt>
      <trkpt lat="43.18544" lon="1.18836">
        <ele>302</ele>
        <time>2019-02-24T08:41:44.000Z</time>
      </trkpt>
      <trkpt lat="43.18543" lon="1.18837">
        <ele>302</ele>
        <time>2019-02-24T08:41:45.000Z</time>
      </trkpt>
      <trkpt lat="43.1854" lon="1.18838">
        <ele>302</ele>
        <time>2019-02-24T08:41:46.000Z</time>
      </trkpt>
      <trkpt lat="43.18538" lon="1.18839">
        <ele>302</ele>
        <time>2019-02-24T08:41:47.000Z</time>
      </trkpt>
      <trkpt lat="43.18536" lon="1.18841">
        <ele>302.42267850781</ele>
        <time>2019-02-24T08:41:48.000Z</time>
      </trkpt>
      <trkpt lat="43.18533" lon="1.18843">
        <ele>303</ele>
        <time>2019-02-24T08:41:49.000Z</time>
      </trkpt>
      <trkpt lat="43.1853" lon="1.18844">
        <ele>303</ele>
        <time>2019-02-24T08:41:50.000Z</time>
      </trkpt>
      <trkpt lat="43.18528" lon="1.18846">
        <ele>303</ele>
        <time>2019-02-24T08:41:51.000Z</time>
      </trkpt>
      <trkpt lat="43.18526" lon="1.18848">
        <ele>303</ele>
        <time>2019-02-24T08:41:52.000Z</time>
      </trkpt>
      <trkpt lat="43.18524" lon="1.1885">
        <ele>303</ele>
        <time>2019-02-24T08:41:53.000Z</time>
      </trkpt>
      <trkpt lat="43.18521" lon="1.18852">
        <ele>303</ele>
        <time>2019-02-24T08:41:54.000Z</time>
      </trkpt>
      <trkpt lat="43.18519" lon="1.18853">
        <ele>303</ele>
        <time>2019-02-24T08:41:55.000Z</time>
      </trkpt>
      <trkpt lat="43.18516" lon="1.18855">
        <ele>303</ele>
        <time>2019-02-24T08:41:56.000Z</time>
      </trkpt>
      <trkpt lat="43.18514" lon="1.18857">
        <ele>303</ele>
        <time>2019-02-24T08:41:57.000Z</time>
      </trkpt>
      <trkpt lat="43.18512" lon="1.18858">
        <ele>303</ele>
        <time>2019-02-24T08:41:58.000Z</time>
      </trkpt>
      <trkpt lat="43.18511" lon="1.1886">
        <ele>303.44</ele>
        <time>2019-02-24T08:41:59.000Z</time>
      </trkpt>
      <trkpt lat="43.18509" lon="1.18862">
        <ele>304</ele>
        <time>2019-02-24T08:42:00.000Z</time>
      </trkpt>
      <trkpt lat="43.18507" lon="1.18864">
        <ele>304</ele>
        <time>2019-02-24T08:42:01.000Z</time>
      </trkpt>
      <trkpt lat="43.18505" lon="1.18866">
        <ele>304</ele>
        <time>2019-02-24T08:42:02.000Z</time>
      </trkpt>
      <trkpt lat="43.18503" lon="1.18871">
        <ele>304</ele>
        <time>2019-02-24T08:42:04.000Z</time>
      </trkpt>
      <trkpt lat="43.18501" lon="1.18873">
        <ele>304</ele>
        <time>2019-02-24T08:42:05.000Z</time>
      </trkpt>
      <trkpt lat="43.185" lon="1.18876">
        <ele>304</ele>
        <time>2019-02-24T08:42:06.000Z</time>
      </trkpt>
      <trkpt lat="43.18498" lon="1.1888">
        <ele>304</ele>
        <time>2019-02-24T08:42:07.000Z</time>
      </trkpt>
      <trkpt lat="43.18497" lon="1.18883">
        <ele>304</ele>
        <time>2019-02-24T08:42:08.000Z</time>
      </trkpt>
      <trkpt lat="43.18495" lon="1.18886">
        <ele>304</ele>
        <time>2019-02-24T08:42:09.000Z</time>
      </trkpt>
      <trkpt lat="43.18493" lon="1.18888">
        <ele>304</ele>
        <time>2019-02-24T08:42:10.000Z</time>
      </trkpt>
      <trkpt lat="43.18491" lon="1.18891">
        <ele>303.56</ele>
        <time>2019-02-24T08:42:11.000Z</time>
      </trkpt>
      <trkpt lat="43.18489" lon="1.18894">
        <ele>303</ele>
        <time>2019-02-24T08:42:12.000Z</time>
      </trkpt>
      <trkpt lat="43.18487" lon="1.18898">
        <ele>303</ele>
        <time>2019-02-24T08:42:13.000Z</time>
      </trkpt>
      <trkpt lat="43.18485" lon="1.18901">
        <ele>303</ele>
        <time>2019-02-24T08:42:14.000Z</time>
      </trkpt>
      <trkpt lat="43.18484" lon="1.18903">
        <ele>303</ele>
        <time>2019-02-24T08:42:15.000Z</time>
      </trkpt>
      <trkpt lat="43.18482" lon="1.18907">
        <ele>303</ele>
        <time>2019-02-24T08:42:16.000Z</time>
      </trkpt>
      <trkpt lat="43.18478" lon="1.18916">
        <ele>303</ele>
        <time>2019-02-24T08:42:19.000Z</time>
      </trkpt>
      <trkpt lat="43.18477" lon="1.18919">
        <ele>303</ele>
        <time>2019-02-24T08:42:20.000Z</time>
      </trkpt>
      <trkpt lat="43.18476" lon="1.18921">
        <ele>303</ele>
        <time>2019-02-24T08:42:21.000Z</time>
      </trkpt>
      <trkpt lat="43.18474" lon="1.18924">
        <ele>303</ele>
        <time>2019-02-24T08:42:22.000Z</time>
      </trkpt>
      <trkpt lat="43.18473" lon="1.18926">
        <ele>303</ele>
        <time>2019-02-24T08:42:23.000Z</time>
      </trkpt>
      <trkpt lat="43.18472" lon="1.18928">
        <ele>302.6292157455</ele>
        <time>2019-02-24T08:42:24.000Z</time>
      </trkpt>
      <trkpt lat="43.18468" lon="1.18932">
        <ele>301.56435505538</ele>
        <time>2019-02-24T08:42:26.000Z</time>
      </trkpt>
      <trkpt lat="43.18457" lon="1.1893">
        <ele>303</ele>
        <time>2019-02-24T08:42:30.000Z</time>
      </trkpt>
      <trkpt lat="43.18447" lon="1.18922">
        <ele>303</ele>
        <time>2019-02-24T08:42:34.000Z</time>
      </trkpt>
      <trkpt lat="43.18437" lon="1.18914">
        <ele>304</ele>
        <time>2019-02-24T08:42:38.000Z</time>
      </trkpt>
      <trkpt lat="43.18429" lon="1.18905">
        <ele>304</ele>
        <time>2019-02-24T08:42:42.000Z</time>
      </trkpt>
      <trkpt lat="43.18423" lon="1.18898">
        <ele>304</ele>
        <time>2019-02-24T08:42:45.000Z</time>
      </trkpt>
      <trkpt lat="43.18421" lon="1.18896">
        <ele>304</ele>
        <time>2019-02-24T08:42:46.000Z</time>
      </trkpt>
      <trkpt lat="43.18419" lon="1.18894">
        <ele>304</ele>
        <time>2019-02-24T08:42:47.000Z</time>
      </trkpt>
      <trkpt lat="43.18417" lon="1.18892">
        <ele>304</ele>
        <time>2019-02-24T08:42:48.000Z</time>
      </trkpt>
      <trkpt lat="43.18415" lon="1.1889">
        <ele>304.3846175486</ele>
        <time>2019-02-24T08:42:49.000Z</time>
      </trkpt>
      <trkpt lat="43.18413" lon="1.18888">
        <ele>305</ele>
        <time>2019-02-24T08:42:50.000Z</time>
      </trkpt>
      <trkpt lat="43.18411" lon="1.18886">
        <ele>305</ele>
        <time>2019-02-24T08:42:51.000Z</time>
      </trkpt>
      <trkpt lat="43.1841" lon="1.18884">
        <ele>305</ele>
        <time>2019-02-24T08:42:52.000Z</time>
      </trkpt>
      <trkpt lat="43.18408" lon="1.18882">
        <ele>305</ele>
        <time>2019-02-24T08:42:53.000Z</time>
      </trkpt>
      <trkpt lat="43.18406" lon="1.1888">
        <ele>305</ele>
        <time>2019-02-24T08:42:54.000Z</time>
      </trkpt>
      <trkpt lat="43.18404" lon="1.18877">
        <ele>305</ele>
        <time>2019-02-24T08:42:55.000Z</time>
      </trkpt>
      <trkpt lat="43.18403" lon="1.18875">
        <ele>305</ele>
        <time>2019-02-24T08:42:56.000Z</time>
      </trkpt>
      <trkpt lat="43.18401" lon="1.18873">
        <ele>305</ele>
        <time>2019-02-24T08:42:57.000Z</time>
      </trkpt>
      <trkpt lat="43.18399" lon="1.18871">
        <ele>305.43434526272</ele>
        <time>2019-02-24T08:42:58.000Z</time>
      </trkpt>
      <trkpt lat="43.18397" lon="1.18869">
        <ele>306</ele>
        <time>2019-02-24T08:42:59.000Z</time>
      </trkpt>
      <trkpt lat="43.18395" lon="1.18866">
        <ele>306</ele>
        <time>2019-02-24T08:43:00.000Z</time>
      </trkpt>
      <trkpt lat="43.18394" lon="1.18864">
        <ele>306</ele>
        <time>2019-02-24T08:43:01.000Z</time>
      </trkpt>
      <trkpt lat="43.1839" lon="1.18859">
        <ele>306</ele>
        <time>2019-02-24T08:43:03.000Z</time>
      </trkpt>
      <trkpt lat="43.18388" lon="1.18857">
        <ele>306</ele>
        <time>2019-02-24T08:43:04.000Z</time>
      </trkpt>
      <trkpt lat="43.18386" lon="1.18854">
        <ele>306</ele>
        <time>2019-02-24T08:43:05.000Z</time>
      </trkpt>
      <trkpt lat="43.18385" lon="1.18852">
        <ele>306</ele>
        <time>2019-02-24T08:43:06.000Z</time>
      </trkpt>
      <trkpt lat="43.18383" lon="1.18849">
        <ele>306</ele>
        <time>2019-02-24T08:43:07.000Z</time>
      </trkpt>
      <trkpt lat="43.18382" lon="1.18847">
        <ele>306</ele>
        <time>2019-02-24T08:43:08.000Z</time>
      </trkpt>
      <trkpt lat="43.1838" lon="1.18844">
        <ele>306</ele>
        <time>2019-02-24T08:43:09.000Z</time>
      </trkpt>
      <trkpt lat="43.18378" lon="1.18842">
        <ele>306.34884205513</ele>
        <time>2019-02-24T08:43:10.000Z</time>
      </trkpt>
      <trkpt lat="43.18376" lon="1.1884">
        <ele>307</ele>
        <time>2019-02-24T08:43:11.000Z</time>
      </trkpt>
      <trkpt lat="43.18375" lon="1.18837">
        <ele>307</ele>
        <time>2019-02-24T08:43:12.000Z</time>
      </trkpt>
      <trkpt lat="43.18373" lon="1.18835">
        <ele>307</ele>
        <time>2019-02-24T08:43:13.000Z</time>
      </trkpt>
      <trkpt lat="43.18371" lon="1.18833">
        <ele>307.44</ele>
        <time>2019-02-24T08:43:14.000Z</time>
      </trkpt>
      <trkpt lat="43.18369" lon="1.1883">
        <ele>308</ele>
        <time>2019-02-24T08:43:15.000Z</time>
      </trkpt>
      <trkpt lat="43.18368" lon="1.18828">
        <ele>308</ele>
        <time>2019-02-24T08:43:16.000Z</time>
      </trkpt>
      <trkpt lat="43.18366" lon="1.18825">
        <ele>308</ele>
        <time>2019-02-24T08:43:17.000Z</time>
      </trkpt>
      <trkpt lat="43.18364" lon="1.18823">
        <ele>308.40425937525</ele>
        <time>2019-02-24T08:43:18.000Z</time>
      </trkpt>
      <trkpt lat="43.18362" lon="1.18822">
        <ele>309</ele>
        <time>2019-02-24T08:43:19.000Z</time>
      </trkpt>
      <trkpt lat="43.18359" lon="1.18817">
        <ele>309</ele>
        <time>2019-02-24T08:43:21.000Z</time>
      </trkpt>
      <trkpt lat="43.1835" lon="1.18812">
        <ele>310</ele>
        <time>2019-02-24T08:43:25.000Z</time>
      </trkpt>
      <trkpt lat="43.18348" lon="1.1881">
        <ele>310</ele>
        <time>2019-02-24T08:43:26.000Z</time>
      </trkpt>
      <trkpt lat="43.18345" lon="1.18809">
        <ele>310</ele>
        <time>2019-02-24T08:43:27.000Z</time>
      </trkpt>
      <trkpt lat="43.18343" lon="1.18807">
        <ele>310</ele>
        <time>2019-02-24T08:43:28.000Z</time>
      </trkpt>
      <trkpt lat="43.18341" lon="1.18806">
        <ele>310</ele>
        <time>2019-02-24T08:43:29.000Z</time>
      </trkpt>
      <trkpt lat="43.18338" lon="1.18805">
        <ele>310</ele>
        <time>2019-02-24T08:43:30.000Z</time>
      </trkpt>
      <trkpt lat="43.18336" lon="1.18804">
        <ele>310</ele>
        <time>2019-02-24T08:43:31.000Z</time>
      </trkpt>
      <trkpt lat="43.18334" lon="1.18803">
        <ele>310</ele>
        <time>2019-02-24T08:43:32.000Z</time>
      </trkpt>
      <trkpt lat="43.18332" lon="1.18802">
        <ele>310.28455470685</ele>
        <time>2019-02-24T08:43:33.000Z</time>
      </trkpt>
      <trkpt lat="43.1833" lon="1.18801">
        <ele>311</ele>
        <time>2019-02-24T08:43:34.000Z</time>
      </trkpt>
      <trkpt lat="43.18327" lon="1.188">
        <ele>311</ele>
        <time>2019-02-24T08:43:35.000Z</time>
      </trkpt>
      <trkpt lat="43.18325" lon="1.18799">
        <ele>311</ele>
        <time>2019-02-24T08:43:36.000Z</time>
      </trkpt>
      <trkpt lat="43.18323" lon="1.18798">
        <ele>311</ele>
        <time>2019-02-24T08:43:37.000Z</time>
      </trkpt>
      <trkpt lat="43.18321" lon="1.18796">
        <ele>311</ele>
        <time>2019-02-24T08:43:38.000Z</time>
      </trkpt>
      <trkpt lat="43.18318" lon="1.18795">
        <ele>311.39130434783</ele>
        <time>2019-02-24T08:43:39.000Z</time>
      </trkpt>
      <trkpt lat="43.18316" lon="1.18795">
        <ele>312</ele>
        <time>2019-02-24T08:43:40.000Z</time>
      </trkpt>
      <trkpt lat="43.18313" lon="1.18794">
        <ele>312</ele>
        <time>2019-02-24T08:43:41.000Z</time>
      </trkpt>
      <trkpt lat="43.18311" lon="1.18794">
        <ele>312</ele>
        <time>2019-02-24T08:43:42.000Z</time>
      </trkpt>
      <trkpt lat="43.18309" lon="1.18793">
        <ele>312</ele>
        <time>2019-02-24T08:43:43.000Z</time>
      </trkpt>
      <trkpt lat="43.18306" lon="1.18792">
        <ele>312</ele>
        <time>2019-02-24T08:43:44.000Z</time>
      </trkpt>
      <trkpt lat="43.18304" lon="1.18791">
        <ele>312</ele>
        <time>2019-02-24T08:43:45.000Z</time>
      </trkpt>
      <trkpt lat="43.18302" lon="1.1879">
        <ele>312</ele>
        <time>2019-02-24T08:43:46.000Z</time>
      </trkpt>
      <trkpt lat="43.18299" lon="1.18789">
        <ele>312</ele>
        <time>2019-02-24T08:43:47.000Z</time>
      </trkpt>
      <trkpt lat="43.18297" lon="1.18788">
        <ele>312</ele>
        <time>2019-02-24T08:43:48.000Z</time>
      </trkpt>
      <trkpt lat="43.18294" lon="1.18788">
        <ele>312</ele>
        <time>2019-02-24T08:43:49.000Z</time>
      </trkpt>
      <trkpt lat="43.18292" lon="1.18787">
        <ele>312</ele>
        <time>2019-02-24T08:43:50.000Z</time>
      </trkpt>
      <trkpt lat="43.18289" lon="1.18786">
        <ele>312</ele>
        <time>2019-02-24T08:43:51.000Z</time>
      </trkpt>
      <trkpt lat="43.18287" lon="1.18785">
        <ele>312</ele>
        <time>2019-02-24T08:43:52.000Z</time>
      </trkpt>
      <trkpt lat="43.18284" lon="1.18784">
        <ele>312</ele>
        <time>2019-02-24T08:43:53.000Z</time>
      </trkpt>
      <trkpt lat="43.18282" lon="1.18783">
        <ele>312</ele>
        <time>2019-02-24T08:43:54.000Z</time>
      </trkpt>
      <trkpt lat="43.18279" lon="1.18782">
        <ele>312</ele>
        <time>2019-02-24T08:43:55.000Z</time>
      </trkpt>
      <trkpt lat="43.18277" lon="1.18781">
        <ele>312</ele>
        <time>2019-02-24T08:43:56.000Z</time>
      </trkpt>
      <trkpt lat="43.18275" lon="1.1878">
        <ele>312</ele>
        <time>2019-02-24T08:43:57.000Z</time>
      </trkpt>
      <trkpt lat="43.18272" lon="1.18779">
        <ele>312</ele>
        <time>2019-02-24T08:43:58.000Z</time>
      </trkpt>
      <trkpt lat="43.1827" lon="1.18778">
        <ele>312.39639525363</ele>
        <time>2019-02-24T08:43:59.000Z</time>
      </trkpt>
      <trkpt lat="43.18267" lon="1.18778">
        <ele>313</ele>
        <time>2019-02-24T08:44:00.000Z</time>
      </trkpt>
      <trkpt lat="43.18265" lon="1.18776">
        <ele>313</ele>
        <time>2019-02-24T08:44:01.000Z</time>
      </trkpt>
      <trkpt lat="43.18262" lon="1.18776">
        <ele>313</ele>
        <time>2019-02-24T08:44:02.000Z</time>
      </trkpt>
      <trkpt lat="43.1826" lon="1.18774">
        <ele>313</ele>
        <time>2019-02-24T08:44:03.000Z</time>
      </trkpt>
      <trkpt lat="43.18257" lon="1.18773">
        <ele>313</ele>
        <time>2019-02-24T08:44:04.000Z</time>
      </trkpt>
      <trkpt lat="43.18255" lon="1.18772">
        <ele>313.44</ele>
        <time>2019-02-24T08:44:05.000Z</time>
      </trkpt>
      <trkpt lat="43.18253" lon="1.18772">
        <ele>314</ele>
        <time>2019-02-24T08:44:06.000Z</time>
      </trkpt>
      <trkpt lat="43.18251" lon="1.18771">
        <ele>314</ele>
        <time>2019-02-24T08:44:07.000Z</time>
      </trkpt>
      <trkpt lat="43.18248" lon="1.1877">
        <ele>314</ele>
        <time>2019-02-24T08:44:08.000Z</time>
      </trkpt>
      <trkpt lat="43.18246" lon="1.18769">
        <ele>314</ele>
        <time>2019-02-24T08:44:09.000Z</time>
      </trkpt>
      <trkpt lat="43.18243" lon="1.18768">
        <ele>314</ele>
        <time>2019-02-24T08:44:10.000Z</time>
      </trkpt>
      <trkpt lat="43.18241" lon="1.18767">
        <ele>314</ele>
        <time>2019-02-24T08:44:11.000Z</time>
      </trkpt>
      <trkpt lat="43.18239" lon="1.18765">
        <ele>314</ele>
        <time>2019-02-24T08:44:12.000Z</time>
      </trkpt>
      <trkpt lat="43.18236" lon="1.18764">
        <ele>314</ele>
        <time>2019-02-24T08:44:13.000Z</time>
      </trkpt>
      <trkpt lat="43.18234" lon="1.18764">
        <ele>314.16418309644</ele>
        <time>2019-02-24T08:44:14.000Z</time>
      </trkpt>
      <trkpt lat="43.18231" lon="1.18763">
        <ele>315</ele>
        <time>2019-02-24T08:44:15.000Z</time>
      </trkpt>
      <trkpt lat="43.18229" lon="1.18762">
        <ele>315</ele>
        <time>2019-02-24T08:44:16.000Z</time>
      </trkpt>
      <trkpt lat="43.18227" lon="1.18761">
        <ele>315</ele>
        <time>2019-02-24T08:44:17.000Z</time>
      </trkpt>
      <trkpt lat="43.18224" lon="1.1876">
        <ele>315</ele>
        <time>2019-02-24T08:44:18.000Z</time>
      </trkpt>
      <trkpt lat="43.18222" lon="1.18759">
        <ele>315</ele>
        <time>2019-02-24T08:44:19.000Z</time>
      </trkpt>
      <trkpt lat="43.18219" lon="1.18758">
        <ele>315</ele>
        <time>2019-02-24T08:44:20.000Z</time>
      </trkpt>
      <trkpt lat="43.18217" lon="1.18757">
        <ele>315</ele>
        <time>2019-02-24T08:44:21.000Z</time>
      </trkpt>
      <trkpt lat="43.18215" lon="1.18756">
        <ele>315.44</ele>
        <time>2019-02-24T08:44:22.000Z</time>
      </trkpt>
      <trkpt lat="43.18212" lon="1.18755">
        <ele>316</ele>
        <time>2019-02-24T08:44:23.000Z</time>
      </trkpt>
      <trkpt lat="43.1821" lon="1.18754">
        <ele>316</ele>
        <time>2019-02-24T08:44:24.000Z</time>
      </trkpt>
      <trkpt lat="43.18207" lon="1.18753">
        <ele>316</ele>
        <time>2019-02-24T08:44:25.000Z</time>
      </trkpt>
      <trkpt lat="43.18205" lon="1.18753">
        <ele>316</ele>
        <time>2019-02-24T08:44:26.000Z</time>
      </trkpt>
      <trkpt lat="43.18203" lon="1.18752">
        <ele>316</ele>
        <time>2019-02-24T08:44:27.000Z</time>
      </trkpt>
      <trkpt lat="43.182" lon="1.18751">
        <ele>316</ele>
        <time>2019-02-24T08:44:28.000Z</time>
      </trkpt>
      <trkpt lat="43.18198" lon="1.18749">
        <ele>316</ele>
        <time>2019-02-24T08:44:29.000Z</time>
      </trkpt>
      <trkpt lat="43.18195" lon="1.18748">
        <ele>316</ele>
        <time>2019-02-24T08:44:30.000Z</time>
      </trkpt>
      <trkpt lat="43.18193" lon="1.18747">
        <ele>316</ele>
        <time>2019-02-24T08:44:31.000Z</time>
      </trkpt>
      <trkpt lat="43.18191" lon="1.18745">
        <ele>316</ele>
        <time>2019-02-24T08:44:32.000Z</time>
      </trkpt>
      <trkpt lat="43.18189" lon="1.18744">
        <ele>316</ele>
        <time>2019-02-24T08:44:33.000Z</time>
      </trkpt>
      <trkpt lat="43.18187" lon="1.18743">
        <ele>316</ele>
        <time>2019-02-24T08:44:34.000Z</time>
      </trkpt>
      <trkpt lat="43.18185" lon="1.18742">
        <ele>316</ele>
        <time>2019-02-24T08:44:35.000Z</time>
      </trkpt>
      <trkpt lat="43.18183" lon="1.1874">
        <ele>316.44</ele>
        <time>2019-02-24T08:44:36.000Z</time>
      </trkpt>
      <trkpt lat="43.18181" lon="1.18739">
        <ele>317</ele>
        <time>2019-02-24T08:44:37.000Z</time>
      </trkpt>
      <trkpt lat="43.18178" lon="1.18738">
        <ele>317</ele>
        <time>2019-02-24T08:44:38.000Z</time>
      </trkpt>
      <trkpt lat="43.18176" lon="1.18738">
        <ele>317</ele>
        <time>2019-02-24T08:44:39.000Z</time>
      </trkpt>
      <trkpt lat="43.18174" lon="1.18738">
        <ele>317</ele>
        <time>2019-02-24T08:44:40.000Z</time>
      </trkpt>
      <trkpt lat="43.18172" lon="1.18737">
        <ele>317</ele>
        <time>2019-02-24T08:44:41.000Z</time>
      </trkpt>
      <trkpt lat="43.1817" lon="1.18736">
        <ele>317</ele>
        <time>2019-02-24T08:44:42.000Z</time>
      </trkpt>
      <trkpt lat="43.18168" lon="1.18735">
        <ele>317</ele>
        <time>2019-02-24T08:44:43.000Z</time>
      </trkpt>
      <trkpt lat="43.18165" lon="1.18734">
        <ele>317</ele>
        <time>2019-02-24T08:44:44.000Z</time>
      </trkpt>
      <trkpt lat="43.18163" lon="1.18733">
        <ele>317</ele>
        <time>2019-02-24T08:44:45.000Z</time>
      </trkpt>
      <trkpt lat="43.1816" lon="1.18732">
        <ele>317</ele>
        <time>2019-02-24T08:44:46.000Z</time>
      </trkpt>
      <trkpt lat="43.18158" lon="1.18731">
        <ele>317</ele>
        <time>2019-02-24T08:44:47.000Z</time>
      </trkpt>
      <trkpt lat="43.18156" lon="1.1873">
        <ele>317</ele>
        <time>2019-02-24T08:44:48.000Z</time>
      </trkpt>
      <trkpt lat="43.18154" lon="1.18729">
        <ele>317</ele>
        <time>2019-02-24T08:44:49.000Z</time>
      </trkpt>
      <trkpt lat="43.18151" lon="1.18728">
        <ele>317</ele>
        <time>2019-02-24T08:44:50.000Z</time>
      </trkpt>
      <trkpt lat="43.18149" lon="1.18727">
        <ele>317</ele>
        <time>2019-02-24T08:44:51.000Z</time>
      </trkpt>
      <trkpt lat="43.18147" lon="1.18727">
        <ele>317</ele>
        <time>2019-02-24T08:44:52.000Z</time>
      </trkpt>
      <trkpt lat="43.18144" lon="1.18727">
        <ele>317</ele>
        <time>2019-02-24T08:44:53.000Z</time>
      </trkpt>
      <trkpt lat="43.18142" lon="1.18726">
        <ele>317.43137525569</ele>
        <time>2019-02-24T08:44:54.000Z</time>
      </trkpt>
      <trkpt lat="43.1814" lon="1.18726">
        <ele>318</ele>
        <time>2019-02-24T08:44:55.000Z</time>
      </trkpt>
      <trkpt lat="43.18138" lon="1.18725">
        <ele>318</ele>
        <time>2019-02-24T08:44:56.000Z</time>
      </trkpt>
      <trkpt lat="43.18136" lon="1.18724">
        <ele>317.56</ele>
        <time>2019-02-24T08:44:57.000Z</time>
      </trkpt>
      <trkpt lat="43.18133" lon="1.18723">
        <ele>317</ele>
        <time>2019-02-24T08:44:58.000Z</time>
      </trkpt>
      <trkpt lat="43.18131" lon="1.18721">
        <ele>317</ele>
        <time>2019-02-24T08:44:59.000Z</time>
      </trkpt>
      <trkpt lat="43.18129" lon="1.18721">
        <ele>317</ele>
        <time>2019-02-24T08:45:00.000Z</time>
      </trkpt>
      <trkpt lat="43.18126" lon="1.18721">
        <ele>317</ele>
        <time>2019-02-24T08:45:01.000Z</time>
      </trkpt>
      <trkpt lat="43.18124" lon="1.18721">
        <ele>317.42307692308</ele>
        <time>2019-02-24T08:45:02.000Z</time>
      </trkpt>
      <trkpt lat="43.18122" lon="1.1872">
        <ele>318</ele>
        <time>2019-02-24T08:45:03.000Z</time>
      </trkpt>
      <trkpt lat="43.18119" lon="1.18719">
        <ele>318</ele>
        <time>2019-02-24T08:45:04.000Z</time>
      </trkpt>
      <trkpt lat="43.18118" lon="1.18718">
        <ele>318</ele>
        <time>2019-02-24T08:45:05.000Z</time>
      </trkpt>
      <trkpt lat="43.18116" lon="1.18717">
        <ele>318</ele>
        <time>2019-02-24T08:45:06.000Z</time>
      </trkpt>
      <trkpt lat="43.18114" lon="1.18716">
        <ele>318</ele>
        <time>2019-02-24T08:45:07.000Z</time>
      </trkpt>
      <trkpt lat="43.18112" lon="1.18715">
        <ele>318</ele>
        <time>2019-02-24T08:45:08.000Z</time>
      </trkpt>
      <trkpt lat="43.1811" lon="1.18715">
        <ele>318</ele>
        <time>2019-02-24T08:45:09.000Z</time>
      </trkpt>
      <trkpt lat="43.18108" lon="1.18714">
        <ele>318</ele>
        <time>2019-02-24T08:45:10.000Z</time>
      </trkpt>
      <trkpt lat="43.18105" lon="1.18713">
        <ele>318</ele>
        <time>2019-02-24T08:45:11.000Z</time>
      </trkpt>
      <trkpt lat="43.18103" lon="1.18712">
        <ele>318</ele>
        <time>2019-02-24T08:45:12.000Z</time>
      </trkpt>
      <trkpt lat="43.18101" lon="1.18711">
        <ele>318</ele>
        <time>2019-02-24T08:45:13.000Z</time>
      </trkpt>
      <trkpt lat="43.18099" lon="1.1871">
        <ele>318</ele>
        <time>2019-02-24T08:45:14.000Z</time>
      </trkpt>
      <trkpt lat="43.18097" lon="1.18709">
        <ele>318</ele>
        <time>2019-02-24T08:45:15.000Z</time>
      </trkpt>
      <trkpt lat="43.18094" lon="1.18708">
        <ele>318</ele>
        <time>2019-02-24T08:45:16.000Z</time>
      </trkpt>
      <trkpt lat="43.18092" lon="1.18707">
        <ele>318</ele>
        <time>2019-02-24T08:45:17.000Z</time>
      </trkpt>
      <trkpt lat="43.1809" lon="1.18706">
        <ele>318</ele>
        <time>2019-02-24T08:45:18.000Z</time>
      </trkpt>
      <trkpt lat="43.18088" lon="1.18705">
        <ele>318.44</ele>
        <time>2019-02-24T08:45:19.000Z</time>
      </trkpt>
      <trkpt lat="43.18086" lon="1.18703">
        <ele>319</ele>
        <time>2019-02-24T08:45:20.000Z</time>
      </trkpt>
      <trkpt lat="43.18083" lon="1.18702">
        <ele>319</ele>
        <time>2019-02-24T08:45:21.000Z</time>
      </trkpt>
      <trkpt lat="43.18081" lon="1.18701">
        <ele>319.40000232729</ele>
        <time>2019-02-24T08:45:22.000Z</time>
      </trkpt>
      <trkpt lat="43.18079" lon="1.18699">
        <ele>320</ele>
        <time>2019-02-24T08:45:23.000Z</time>
      </trkpt>
      <trkpt lat="43.18077" lon="1.18697">
        <ele>320</ele>
        <time>2019-02-24T08:45:24.000Z</time>
      </trkpt>
      <trkpt lat="43.18075" lon="1.18696">
        <ele>320</ele>
        <time>2019-02-24T08:45:25.000Z</time>
      </trkpt>
      <trkpt lat="43.18073" lon="1.18694">
        <ele>320</ele>
        <time>2019-02-24T08:45:26.000Z</time>
      </trkpt>
      <trkpt lat="43.18072" lon="1.18693">
        <ele>320</ele>
        <time>2019-02-24T08:45:27.000Z</time>
      </trkpt>
      <trkpt lat="43.1807" lon="1.18691">
        <ele>320</ele>
        <time>2019-02-24T08:45:28.000Z</time>
      </trkpt>
      <trkpt lat="43.18068" lon="1.18689">
        <ele>320</ele>
        <time>2019-02-24T08:45:29.000Z</time>
      </trkpt>
      <trkpt lat="43.18067" lon="1.18688">
        <ele>320</ele>
        <time>2019-02-24T08:45:30.000Z</time>
      </trkpt>
      <trkpt lat="43.18065" lon="1.18687">
        <ele>320</ele>
        <time>2019-02-24T08:45:31.000Z</time>
      </trkpt>
      <trkpt lat="43.18063" lon="1.18685">
        <ele>320</ele>
        <time>2019-02-24T08:45:32.000Z</time>
      </trkpt>
      <trkpt lat="43.18062" lon="1.18683">
        <ele>320</ele>
        <time>2019-02-24T08:45:33.000Z</time>
      </trkpt>
      <trkpt lat="43.18061" lon="1.18681">
        <ele>320.43137525569</ele>
        <time>2019-02-24T08:45:34.000Z</time>
      </trkpt>
      <trkpt lat="43.1806" lon="1.18679">
        <ele>321</ele>
        <time>2019-02-24T08:45:35.000Z</time>
      </trkpt>
      <trkpt lat="43.18058" lon="1.18677">
        <ele>321</ele>
        <time>2019-02-24T08:45:36.000Z</time>
      </trkpt>
      <trkpt lat="43.18056" lon="1.18675">
        <ele>321</ele>
        <time>2019-02-24T08:45:37.000Z</time>
      </trkpt>
      <trkpt lat="43.18055" lon="1.18673">
        <ele>321</ele>
        <time>2019-02-24T08:45:38.000Z</time>
      </trkpt>
      <trkpt lat="43.18053" lon="1.18671">
        <ele>321</ele>
        <time>2019-02-24T08:45:39.000Z</time>
      </trkpt>
      <trkpt lat="43.18052" lon="1.18668">
        <ele>321</ele>
        <time>2019-02-24T08:45:40.000Z</time>
      </trkpt>
      <trkpt lat="43.18052" lon="1.18665">
        <ele>321</ele>
        <time>2019-02-24T08:45:41.000Z</time>
      </trkpt>
      <trkpt lat="43.18051" lon="1.18663">
        <ele>321.38938163365</ele>
        <time>2019-02-24T08:45:42.000Z</time>
      </trkpt>
      <trkpt lat="43.18051" lon="1.1866">
        <ele>322.26271315139</ele>
        <time>2019-02-24T08:45:43.000Z</time>
      </trkpt>
      <trkpt lat="43.18051" lon="1.18656">
        <ele>323</ele>
        <time>2019-02-24T08:45:44.000Z</time>
      </trkpt>
      <trkpt lat="43.18052" lon="1.18653">
        <ele>323</ele>
        <time>2019-02-24T08:45:45.000Z</time>
      </trkpt>
      <trkpt lat="43.18053" lon="1.1865">
        <ele>323</ele>
        <time>2019-02-24T08:45:46.000Z</time>
      </trkpt>
      <trkpt lat="43.18054" lon="1.18647">
        <ele>323</ele>
        <time>2019-02-24T08:45:47.000Z</time>
      </trkpt>
      <trkpt lat="43.18055" lon="1.18644">
        <ele>323</ele>
        <time>2019-02-24T08:45:48.000Z</time>
      </trkpt>
      <trkpt lat="43.18056" lon="1.18641">
        <ele>323</ele>
        <time>2019-02-24T08:45:49.000Z</time>
      </trkpt>
      <trkpt lat="43.18056" lon="1.18639">
        <ele>323</ele>
        <time>2019-02-24T08:45:50.000Z</time>
      </trkpt>
      <trkpt lat="43.18057" lon="1.18636">
        <ele>323</ele>
        <time>2019-02-24T08:45:51.000Z</time>
      </trkpt>
      <trkpt lat="43.18058" lon="1.18633">
        <ele>323</ele>
        <time>2019-02-24T08:45:52.000Z</time>
      </trkpt>
      <trkpt lat="43.18059" lon="1.18631">
        <ele>323</ele>
        <time>2019-02-24T08:45:53.000Z</time>
      </trkpt>
      <trkpt lat="43.1806" lon="1.18628">
        <ele>323.44</ele>
        <time>2019-02-24T08:45:54.000Z</time>
      </trkpt>
      <trkpt lat="43.18061" lon="1.18625">
        <ele>324</ele>
        <time>2019-02-24T08:45:55.000Z</time>
      </trkpt>
      <trkpt lat="43.18062" lon="1.18622">
        <ele>324</ele>
        <time>2019-02-24T08:45:56.000Z</time>
      </trkpt>
      <trkpt lat="43.18063" lon="1.18619">
        <ele>324</ele>
        <time>2019-02-24T08:45:57.000Z</time>
      </trkpt>
      <trkpt lat="43.18064" lon="1.18616">
        <ele>324</ele>
        <time>2019-02-24T08:45:58.000Z</time>
      </trkpt>
      <trkpt lat="43.18066" lon="1.18613">
        <ele>324</ele>
        <time>2019-02-24T08:45:59.000Z</time>
      </trkpt>
      <trkpt lat="43.18067" lon="1.1861">
        <ele>324</ele>
        <time>2019-02-24T08:46:00.000Z</time>
      </trkpt>
      <trkpt lat="43.18068" lon="1.18607">
        <ele>324</ele>
        <time>2019-02-24T08:46:01.000Z</time>
      </trkpt>
      <trkpt lat="43.18069" lon="1.18604">
        <ele>324</ele>
        <time>2019-02-24T08:46:02.000Z</time>
      </trkpt>
      <trkpt lat="43.1807" lon="1.18601">
        <ele>324</ele>
        <time>2019-02-24T08:46:03.000Z</time>
      </trkpt>
      <trkpt lat="43.18071" lon="1.18598">
        <ele>324</ele>
        <time>2019-02-24T08:46:04.000Z</time>
      </trkpt>
      <trkpt lat="43.18072" lon="1.18596">
        <ele>324</ele>
        <time>2019-02-24T08:46:05.000Z</time>
      </trkpt>
      <trkpt lat="43.18073" lon="1.18593">
        <ele>324</ele>
        <time>2019-02-24T08:46:06.000Z</time>
      </trkpt>
      <trkpt lat="43.18074" lon="1.1859">
        <ele>324.44</ele>
        <time>2019-02-24T08:46:07.000Z</time>
      </trkpt>
      <trkpt lat="43.18074" lon="1.18587">
        <ele>325</ele>
        <time>2019-02-24T08:46:08.000Z</time>
      </trkpt>
      <trkpt lat="43.18075" lon="1.18583">
        <ele>325</ele>
        <time>2019-02-24T08:46:09.000Z</time>
      </trkpt>
      <trkpt lat="43.18077" lon="1.18579">
        <ele>325</ele>
        <time>2019-02-24T08:46:11.000Z</time>
      </trkpt>
      <trkpt lat="43.18077" lon="1.18577">
        <ele>325</ele>
        <time>2019-02-24T08:46:12.000Z</time>
      </trkpt>
      <trkpt lat="43.18078" lon="1.18575">
        <ele>325.44</ele>
        <time>2019-02-24T08:46:13.000Z</time>
      </trkpt>
      <trkpt lat="43.18079" lon="1.18572">
        <ele>326</ele>
        <time>2019-02-24T08:46:14.000Z</time>
      </trkpt>
      <trkpt lat="43.1808" lon="1.1857">
        <ele>326</ele>
        <time>2019-02-24T08:46:15.000Z</time>
      </trkpt>
      <trkpt lat="43.18081" lon="1.18567">
        <ele>326</ele>
        <time>2019-02-24T08:46:16.000Z</time>
      </trkpt>
      <trkpt lat="43.18083" lon="1.18563">
        <ele>327</ele>
        <time>2019-02-24T08:46:18.000Z</time>
      </trkpt>
      <trkpt lat="43.18084" lon="1.18561">
        <ele>327</ele>
        <time>2019-02-24T08:46:19.000Z</time>
      </trkpt>
      <trkpt lat="43.18086" lon="1.18557">
        <ele>327.32116863339</ele>
        <time>2019-02-24T08:46:21.000Z</time>
      </trkpt>
      <trkpt lat="43.18088" lon="1.18553">
        <ele>329</ele>
        <time>2019-02-24T08:46:23.000Z</time>
      </trkpt>
      <trkpt lat="43.18089" lon="1.18549">
        <ele>329.44</ele>
        <time>2019-02-24T08:46:25.000Z</time>
      </trkpt>
      <trkpt lat="43.18091" lon="1.18547">
        <ele>330</ele>
        <time>2019-02-24T08:46:26.000Z</time>
      </trkpt>
      <trkpt lat="43.18092" lon="1.18545">
        <ele>330</ele>
        <time>2019-02-24T08:46:27.000Z</time>
      </trkpt>
      <trkpt lat="43.18094" lon="1.18543">
        <ele>330</ele>
        <time>2019-02-24T08:46:28.000Z</time>
      </trkpt>
      <trkpt lat="43.18095" lon="1.18539">
        <ele>330</ele>
        <time>2019-02-24T08:46:30.000Z</time>
      </trkpt>
      <trkpt lat="43.18097" lon="1.18535">
        <ele>331</ele>
        <time>2019-02-24T08:46:32.000Z</time>
      </trkpt>
      <trkpt lat="43.18098" lon="1.18531">
        <ele>331.41666666667</ele>
        <time>2019-02-24T08:46:34.000Z</time>
      </trkpt>
      <trkpt lat="43.18098" lon="1.18527">
        <ele>333</ele>
        <time>2019-02-24T08:46:36.000Z</time>
      </trkpt>
      <trkpt lat="43.18098" lon="1.18524">
        <ele>333.44</ele>
        <time>2019-02-24T08:46:37.000Z</time>
      </trkpt>
      <trkpt lat="43.18099" lon="1.1852">
        <ele>334</ele>
        <time>2019-02-24T08:46:39.000Z</time>
      </trkpt>
      <trkpt lat="43.18101" lon="1.18516">
        <ele>334</ele>
        <time>2019-02-24T08:46:41.000Z</time>
      </trkpt>
      <trkpt lat="43.18102" lon="1.18512">
        <ele>334.44</ele>
        <time>2019-02-24T08:46:43.000Z</time>
      </trkpt>
      <trkpt lat="43.18103" lon="1.18507">
        <ele>335.41509684587</ele>
        <time>2019-02-24T08:46:45.000Z</time>
      </trkpt>
      <trkpt lat="43.18104" lon="1.18505">
        <ele>336</ele>
        <time>2019-02-24T08:46:46.000Z</time>
      </trkpt>
      <trkpt lat="43.18106" lon="1.185">
        <ele>336</ele>
        <time>2019-02-24T08:46:48.000Z</time>
      </trkpt>
      <trkpt lat="43.18107" lon="1.18496">
        <ele>336</ele>
        <time>2019-02-24T08:46:50.000Z</time>
      </trkpt>
      <trkpt lat="43.18108" lon="1.18494">
        <ele>336</ele>
        <time>2019-02-24T08:46:51.000Z</time>
      </trkpt>
      <trkpt lat="43.18109" lon="1.18491">
        <ele>336</ele>
        <time>2019-02-24T08:46:52.000Z</time>
      </trkpt>
      <trkpt lat="43.1811" lon="1.18489">
        <ele>336.3846175486</ele>
        <time>2019-02-24T08:46:53.000Z</time>
      </trkpt>
      <trkpt lat="43.18111" lon="1.18487">
        <ele>337</ele>
        <time>2019-02-24T08:46:54.000Z</time>
      </trkpt>
      <trkpt lat="43.18111" lon="1.18484">
        <ele>337.33333333333</ele>
        <time>2019-02-24T08:46:55.000Z</time>
      </trkpt>
      <trkpt lat="43.18112" lon="1.18481">
        <ele>338</ele>
        <time>2019-02-24T08:46:56.000Z</time>
      </trkpt>
      <trkpt lat="43.18112" lon="1.18479">
        <ele>338.44</ele>
        <time>2019-02-24T08:46:57.000Z</time>
      </trkpt>
      <trkpt lat="43.18113" lon="1.18476">
        <ele>339</ele>
        <time>2019-02-24T08:46:58.000Z</time>
      </trkpt>
      <trkpt lat="43.18112" lon="1.18473">
        <ele>339.3307700639</ele>
        <time>2019-02-24T08:46:59.000Z</time>
      </trkpt>
      <trkpt lat="43.18111" lon="1.1847">
        <ele>340.13684011965</ele>
        <time>2019-02-24T08:47:00.000Z</time>
      </trkpt>
      <trkpt lat="43.1811" lon="1.18468">
        <ele>341</ele>
        <time>2019-02-24T08:47:01.000Z</time>
      </trkpt>
      <trkpt lat="43.18109" lon="1.18465">
        <ele>341</ele>
        <time>2019-02-24T08:47:02.000Z</time>
      </trkpt>
      <trkpt lat="43.18108" lon="1.18463">
        <ele>341</ele>
        <time>2019-02-24T08:47:03.000Z</time>
      </trkpt>
      <trkpt lat="43.18107" lon="1.1846">
        <ele>341</ele>
        <time>2019-02-24T08:47:04.000Z</time>
      </trkpt>
      <trkpt lat="43.18106" lon="1.18458">
        <ele>341</ele>
        <time>2019-02-24T08:47:05.000Z</time>
      </trkpt>
      <trkpt lat="43.18105" lon="1.18456">
        <ele>341.40000232729</ele>
        <time>2019-02-24T08:47:06.000Z</time>
      </trkpt>
      <trkpt lat="43.18104" lon="1.18453">
        <ele>342.37778220244</ele>
        <time>2019-02-24T08:47:07.000Z</time>
      </trkpt>
      <trkpt lat="43.18103" lon="1.18451">
        <ele>343</ele>
        <time>2019-02-24T08:47:08.000Z</time>
      </trkpt>
      <trkpt lat="43.18101" lon="1.18449">
        <ele>343</ele>
        <time>2019-02-24T08:47:09.000Z</time>
      </trkpt>
      <trkpt lat="43.18099" lon="1.18447">
        <ele>343</ele>
        <time>2019-02-24T08:47:10.000Z</time>
      </trkpt>
      <trkpt lat="43.18098" lon="1.18445">
        <ele>343</ele>
        <time>2019-02-24T08:47:11.000Z</time>
      </trkpt>
      <trkpt lat="43.18096" lon="1.18442">
        <ele>343</ele>
        <time>2019-02-24T08:47:12.000Z</time>
      </trkpt>
      <trkpt lat="43.18094" lon="1.1844">
        <ele>343</ele>
        <time>2019-02-24T08:47:13.000Z</time>
      </trkpt>
      <trkpt lat="43.18092" lon="1.18438">
        <ele>343</ele>
        <time>2019-02-24T08:47:14.000Z</time>
      </trkpt>
      <trkpt lat="43.18091" lon="1.18436">
        <ele>343</ele>
        <time>2019-02-24T08:47:15.000Z</time>
      </trkpt>
      <trkpt lat="43.18089" lon="1.18434">
        <ele>343</ele>
        <time>2019-02-24T08:47:16.000Z</time>
      </trkpt>
      <trkpt lat="43.18088" lon="1.18431">
        <ele>343</ele>
        <time>2019-02-24T08:47:17.000Z</time>
      </trkpt>
      <trkpt lat="43.18086" lon="1.18429">
        <ele>343</ele>
        <time>2019-02-24T08:47:18.000Z</time>
      </trkpt>
      <trkpt lat="43.18085" lon="1.18427">
        <ele>343</ele>
        <time>2019-02-24T08:47:19.000Z</time>
      </trkpt>
      <trkpt lat="43.18083" lon="1.18426">
        <ele>343</ele>
        <time>2019-02-24T08:47:20.000Z</time>
      </trkpt>
      <trkpt lat="43.1808" lon="1.18424">
        <ele>343</ele>
        <time>2019-02-24T08:47:21.000Z</time>
      </trkpt>
      <trkpt lat="43.18078" lon="1.18423">
        <ele>342.56</ele>
        <time>2019-02-24T08:47:22.000Z</time>
      </trkpt>
      <trkpt lat="43.18077" lon="1.18421">
        <ele>342</ele>
        <time>2019-02-24T08:47:23.000Z</time>
      </trkpt>
      <trkpt lat="43.18075" lon="1.18419">
        <ele>342</ele>
        <time>2019-02-24T08:47:24.000Z</time>
      </trkpt>
      <trkpt lat="43.18073" lon="1.18418">
        <ele>342</ele>
        <time>2019-02-24T08:47:25.000Z</time>
      </trkpt>
      <trkpt lat="43.18071" lon="1.18417">
        <ele>342</ele>
        <time>2019-02-24T08:47:26.000Z</time>
      </trkpt>
      <trkpt lat="43.18069" lon="1.18415">
        <ele>342</ele>
        <time>2019-02-24T08:47:27.000Z</time>
      </trkpt>
      <trkpt lat="43.18067" lon="1.18413">
        <ele>342</ele>
        <time>2019-02-24T08:47:28.000Z</time>
      </trkpt>
      <trkpt lat="43.18065" lon="1.18412">
        <ele>342</ele>
        <time>2019-02-24T08:47:29.000Z</time>
      </trkpt>
      <trkpt lat="43.18063" lon="1.18412">
        <ele>342</ele>
        <time>2019-02-24T08:47:30.000Z</time>
      </trkpt>
      <trkpt lat="43.18061" lon="1.1841">
        <ele>342</ele>
        <time>2019-02-24T08:47:31.000Z</time>
      </trkpt>
      <trkpt lat="43.18059" lon="1.18409">
        <ele>341.59632909014</ele>
        <time>2019-02-24T08:47:32.000Z</time>
      </trkpt>
      <trkpt lat="43.18057" lon="1.18407">
        <ele>341</ele>
        <time>2019-02-24T08:47:33.000Z</time>
      </trkpt>
      <trkpt lat="43.18055" lon="1.18407">
        <ele>341</ele>
        <time>2019-02-24T08:47:34.000Z</time>
      </trkpt>
      <trkpt lat="43.18054" lon="1.18405">
        <ele>341</ele>
        <time>2019-02-24T08:47:35.000Z</time>
      </trkpt>
      <trkpt lat="43.18052" lon="1.18404">
        <ele>341</ele>
        <time>2019-02-24T08:47:36.000Z</time>
      </trkpt>
      <trkpt lat="43.1805" lon="1.18402">
        <ele>341.32352941176</ele>
        <time>2019-02-24T08:47:37.000Z</time>
      </trkpt>
      <trkpt lat="43.18048" lon="1.18401">
        <ele>342</ele>
        <time>2019-02-24T08:47:38.000Z</time>
      </trkpt>
      <trkpt lat="43.18046" lon="1.184">
        <ele>342</ele>
        <time>2019-02-24T08:47:39.000Z</time>
      </trkpt>
      <trkpt lat="43.18044" lon="1.18399">
        <ele>342</ele>
        <time>2019-02-24T08:47:40.000Z</time>
      </trkpt>
      <trkpt lat="43.18042" lon="1.18398">
        <ele>342</ele>
        <time>2019-02-24T08:47:41.000Z</time>
      </trkpt>
      <trkpt lat="43.1804" lon="1.18397">
        <ele>342</ele>
        <time>2019-02-24T08:47:42.000Z</time>
      </trkpt>
      <trkpt lat="43.18038" lon="1.18396">
        <ele>342</ele>
        <time>2019-02-24T08:47:43.000Z</time>
      </trkpt>
      <trkpt lat="43.18036" lon="1.18395">
        <ele>342</ele>
        <time>2019-02-24T08:47:44.000Z</time>
      </trkpt>
      <trkpt lat="43.18034" lon="1.18394">
        <ele>342</ele>
        <time>2019-02-24T08:47:45.000Z</time>
      </trkpt>
      <trkpt lat="43.18032" lon="1.18392">
        <ele>342</ele>
        <time>2019-02-24T08:47:46.000Z</time>
      </trkpt>
      <trkpt lat="43.1803" lon="1.18391">
        <ele>342</ele>
        <time>2019-02-24T08:47:47.000Z</time>
      </trkpt>
      <trkpt lat="43.18028" lon="1.18389">
        <ele>342</ele>
        <time>2019-02-24T08:47:48.000Z</time>
      </trkpt>
      <trkpt lat="43.18026" lon="1.18388">
        <ele>342</ele>
        <time>2019-02-24T08:47:49.000Z</time>
      </trkpt>
      <trkpt lat="43.18024" lon="1.18387">
        <ele>342</ele>
        <time>2019-02-24T08:47:50.000Z</time>
      </trkpt>
      <trkpt lat="43.18022" lon="1.18385">
        <ele>342</ele>
        <time>2019-02-24T08:47:51.000Z</time>
      </trkpt>
      <trkpt lat="43.1802" lon="1.18384">
        <ele>342</ele>
        <time>2019-02-24T08:47:52.000Z</time>
      </trkpt>
      <trkpt lat="43.18019" lon="1.18382">
        <ele>342</ele>
        <time>2019-02-24T08:47:53.000Z</time>
      </trkpt>
      <trkpt lat="43.18016" lon="1.1838">
        <ele>342</ele>
        <time>2019-02-24T08:47:54.000Z</time>
      </trkpt>
      <trkpt lat="43.18014" lon="1.18379">
        <ele>342</ele>
        <time>2019-02-24T08:47:55.000Z</time>
      </trkpt>
      <trkpt lat="43.18012" lon="1.18377">
        <ele>341.73504217401</ele>
        <time>2019-02-24T08:47:56.000Z</time>
      </trkpt>
      <trkpt lat="43.1801" lon="1.18377">
        <ele>341.19999268565</ele>
        <time>2019-02-24T08:47:57.000Z</time>
      </trkpt>
      <trkpt lat="43.18007" lon="1.18376">
        <ele>342</ele>
        <time>2019-02-24T08:47:58.000Z</time>
      </trkpt>
      <trkpt lat="43.18005" lon="1.18374">
        <ele>342</ele>
        <time>2019-02-24T08:47:59.000Z</time>
      </trkpt>
      <trkpt lat="43.18003" lon="1.18372">
        <ele>342</ele>
        <time>2019-02-24T08:48:00.000Z</time>
      </trkpt>
      <trkpt lat="43.18001" lon="1.18371">
        <ele>342</ele>
        <time>2019-02-24T08:48:01.000Z</time>
      </trkpt>
      <trkpt lat="43.17999" lon="1.18369">
        <ele>342</ele>
        <time>2019-02-24T08:48:02.000Z</time>
      </trkpt>
      <trkpt lat="43.17997" lon="1.18368">
        <ele>341.67407484664</ele>
        <time>2019-02-24T08:48:03.000Z</time>
      </trkpt>
      <trkpt lat="43.17995" lon="1.18366">
        <ele>341</ele>
        <time>2019-02-24T08:48:04.000Z</time>
      </trkpt>
      <trkpt lat="43.17993" lon="1.18365">
        <ele>341</ele>
        <time>2019-02-24T08:48:05.000Z</time>
      </trkpt>
      <trkpt lat="43.17991" lon="1.18363">
        <ele>341</ele>
        <time>2019-02-24T08:48:06.000Z</time>
      </trkpt>
      <trkpt lat="43.17989" lon="1.18361">
        <ele>341.43434526272</ele>
        <time>2019-02-24T08:48:07.000Z</time>
      </trkpt>
      <trkpt lat="43.17987" lon="1.18359">
        <ele>342</ele>
        <time>2019-02-24T08:48:08.000Z</time>
      </trkpt>
      <trkpt lat="43.17985" lon="1.18358">
        <ele>342</ele>
        <time>2019-02-24T08:48:09.000Z</time>
      </trkpt>
      <trkpt lat="43.17983" lon="1.18356">
        <ele>342</ele>
        <time>2019-02-24T08:48:10.000Z</time>
      </trkpt>
      <trkpt lat="43.1798" lon="1.18354">
        <ele>342</ele>
        <time>2019-02-24T08:48:12.000Z</time>
      </trkpt>
      <trkpt lat="43.17978" lon="1.18353">
        <ele>342</ele>
        <time>2019-02-24T08:48:13.000Z</time>
      </trkpt>
      <trkpt lat="43.17976" lon="1.18351">
        <ele>342</ele>
        <time>2019-02-24T08:48:14.000Z</time>
      </trkpt>
      <trkpt lat="43.17974" lon="1.1835">
        <ele>342</ele>
        <time>2019-02-24T08:48:15.000Z</time>
      </trkpt>
      <trkpt lat="43.17973" lon="1.18348">
        <ele>342</ele>
        <time>2019-02-24T08:48:16.000Z</time>
      </trkpt>
      <trkpt lat="43.17971" lon="1.18347">
        <ele>342</ele>
        <time>2019-02-24T08:48:17.000Z</time>
      </trkpt>
      <trkpt lat="43.17969" lon="1.18346">
        <ele>342.41904889615</ele>
        <time>2019-02-24T08:48:18.000Z</time>
      </trkpt>
      <trkpt lat="43.17967" lon="1.18345">
        <ele>343</ele>
        <time>2019-02-24T08:48:19.000Z</time>
      </trkpt>
      <trkpt lat="43.17966" lon="1.18344">
        <ele>343</ele>
        <time>2019-02-24T08:48:20.000Z</time>
      </trkpt>
      <trkpt lat="43.17964" lon="1.18342">
        <ele>343</ele>
        <time>2019-02-24T08:48:21.000Z</time>
      </trkpt>
      <trkpt lat="43.17961" lon="1.1834">
        <ele>343.44</ele>
        <time>2019-02-24T08:48:22.000Z</time>
      </trkpt>
      <trkpt lat="43.17959" lon="1.18339">
        <ele>344</ele>
        <time>2019-02-24T08:48:23.000Z</time>
      </trkpt>
      <trkpt lat="43.17956" lon="1.18336">
        <ele>344</ele>
        <time>2019-02-24T08:48:24.000Z</time>
      </trkpt>
      <trkpt lat="43.17953" lon="1.18334">
        <ele>344</ele>
        <time>2019-02-24T08:48:25.000Z</time>
      </trkpt>
      <trkpt lat="43.17951" lon="1.18332">
        <ele>344.05085260555</ele>
        <time>2019-02-24T08:48:26.000Z</time>
      </trkpt>
      <trkpt lat="43.17948" lon="1.18332">
        <ele>345</ele>
        <time>2019-02-24T08:48:27.000Z</time>
      </trkpt>
      <trkpt lat="43.17946" lon="1.18331">
        <ele>345.41121372347</ele>
        <time>2019-02-24T08:48:28.000Z</time>
      </trkpt>
      <trkpt lat="43.17944" lon="1.1833">
        <ele>346</ele>
        <time>2019-02-24T08:48:29.000Z</time>
      </trkpt>
      <trkpt lat="43.17941" lon="1.18329">
        <ele>346.38596274547</ele>
        <time>2019-02-24T08:48:30.000Z</time>
      </trkpt>
      <trkpt lat="43.17939" lon="1.18329">
        <ele>347</ele>
        <time>2019-02-24T08:48:31.000Z</time>
      </trkpt>
      <trkpt lat="43.17936" lon="1.18329">
        <ele>347</ele>
        <time>2019-02-24T08:48:32.000Z</time>
      </trkpt>
      <trkpt lat="43.17934" lon="1.18328">
        <ele>347</ele>
        <time>2019-02-24T08:48:33.000Z</time>
      </trkpt>
      <trkpt lat="43.17931" lon="1.18327">
        <ele>347</ele>
        <time>2019-02-24T08:48:34.000Z</time>
      </trkpt>
      <trkpt lat="43.17929" lon="1.18327">
        <ele>347</ele>
        <time>2019-02-24T08:48:35.000Z</time>
      </trkpt>
      <trkpt lat="43.17926" lon="1.18327">
        <ele>347</ele>
        <time>2019-02-24T08:48:36.000Z</time>
      </trkpt>
      <trkpt lat="43.17924" lon="1.18327">
        <ele>347.39784739044</ele>
        <time>2019-02-24T08:48:37.000Z</time>
      </trkpt>
      <trkpt lat="43.17922" lon="1.18327">
        <ele>348.44</ele>
        <time>2019-02-24T08:48:38.000Z</time>
      </trkpt>
      <trkpt lat="43.17919" lon="1.18327">
        <ele>349</ele>
        <time>2019-02-24T08:48:39.000Z</time>
      </trkpt>
      <trkpt lat="43.17917" lon="1.18327">
        <ele>349</ele>
        <time>2019-02-24T08:48:40.000Z</time>
      </trkpt>
      <trkpt lat="43.17915" lon="1.18327">
        <ele>349</ele>
        <time>2019-02-24T08:48:41.000Z</time>
      </trkpt>
      <trkpt lat="43.17912" lon="1.18327">
        <ele>349</ele>
        <time>2019-02-24T08:48:42.000Z</time>
      </trkpt>
      <trkpt lat="43.1791" lon="1.18328">
        <ele>349</ele>
        <time>2019-02-24T08:48:43.000Z</time>
      </trkpt>
      <trkpt lat="43.17907" lon="1.18329">
        <ele>349</ele>
        <time>2019-02-24T08:48:44.000Z</time>
      </trkpt>
      <trkpt lat="43.17905" lon="1.1833">
        <ele>349</ele>
        <time>2019-02-24T08:48:45.000Z</time>
      </trkpt>
      <trkpt lat="43.17902" lon="1.1833">
        <ele>349</ele>
        <time>2019-02-24T08:48:46.000Z</time>
      </trkpt>
      <trkpt lat="43.179" lon="1.18331">
        <ele>349</ele>
        <time>2019-02-24T08:48:47.000Z</time>
      </trkpt>
      <trkpt lat="43.17897" lon="1.18332">
        <ele>349</ele>
        <time>2019-02-24T08:48:48.000Z</time>
      </trkpt>
      <trkpt lat="43.17895" lon="1.18333">
        <ele>349</ele>
        <time>2019-02-24T08:48:49.000Z</time>
      </trkpt>
      <trkpt lat="43.17893" lon="1.18333">
        <ele>349</ele>
        <time>2019-02-24T08:48:50.000Z</time>
      </trkpt>
      <trkpt lat="43.17891" lon="1.18334">
        <ele>349</ele>
        <time>2019-02-24T08:48:51.000Z</time>
      </trkpt>
      <trkpt lat="43.17888" lon="1.18335">
        <ele>349</ele>
        <time>2019-02-24T08:48:52.000Z</time>
      </trkpt>
      <trkpt lat="43.17886" lon="1.18336">
        <ele>349</ele>
        <time>2019-02-24T08:48:53.000Z</time>
      </trkpt>
      <trkpt lat="43.17883" lon="1.18337">
        <ele>349</ele>
        <time>2019-02-24T08:48:54.000Z</time>
      </trkpt>
      <trkpt lat="43.17881" lon="1.18337">
        <ele>349</ele>
        <time>2019-02-24T08:48:55.000Z</time>
      </trkpt>
      <trkpt lat="43.17878" lon="1.18338">
        <ele>349</ele>
        <time>2019-02-24T08:48:56.000Z</time>
      </trkpt>
      <trkpt lat="43.17876" lon="1.18339">
        <ele>349</ele>
        <time>2019-02-24T08:48:57.000Z</time>
      </trkpt>
      <trkpt lat="43.17873" lon="1.1834">
        <ele>349</ele>
        <time>2019-02-24T08:48:58.000Z</time>
      </trkpt>
      <trkpt lat="43.1787" lon="1.18341">
        <ele>349</ele>
        <time>2019-02-24T08:48:59.000Z</time>
      </trkpt>
      <trkpt lat="43.17868" lon="1.18342">
        <ele>349</ele>
        <time>2019-02-24T08:49:00.000Z</time>
      </trkpt>
      <trkpt lat="43.17866" lon="1.18342">
        <ele>349</ele>
        <time>2019-02-24T08:49:01.000Z</time>
      </trkpt>
      <trkpt lat="43.17863" lon="1.18343">
        <ele>349</ele>
        <time>2019-02-24T08:49:02.000Z</time>
      </trkpt>
      <trkpt lat="43.17861" lon="1.18344">
        <ele>349</ele>
        <time>2019-02-24T08:49:03.000Z</time>
      </trkpt>
      <trkpt lat="43.17858" lon="1.18345">
        <ele>349</ele>
        <time>2019-02-24T08:49:04.000Z</time>
      </trkpt>
      <trkpt lat="43.17855" lon="1.18345">
        <ele>349</ele>
        <time>2019-02-24T08:49:05.000Z</time>
      </trkpt>
      <trkpt lat="43.17852" lon="1.18346">
        <ele>349</ele>
        <time>2019-02-24T08:49:06.000Z</time>
      </trkpt>
      <trkpt lat="43.17849" lon="1.18347">
        <ele>349</ele>
        <time>2019-02-24T08:49:07.000Z</time>
      </trkpt>
      <trkpt lat="43.17846" lon="1.18347">
        <ele>349</ele>
        <time>2019-02-24T08:49:08.000Z</time>
      </trkpt>
      <trkpt lat="43.17843" lon="1.18348">
        <ele>349</ele>
        <time>2019-02-24T08:49:09.000Z</time>
      </trkpt>
      <trkpt lat="43.1784" lon="1.18348">
        <ele>349</ele>
        <time>2019-02-24T08:49:10.000Z</time>
      </trkpt>
      <trkpt lat="43.17837" lon="1.18348">
        <ele>349</ele>
        <time>2019-02-24T08:49:11.000Z</time>
      </trkpt>
      <trkpt lat="43.17834" lon="1.18347">
        <ele>349</ele>
        <time>2019-02-24T08:49:12.000Z</time>
      </trkpt>
      <trkpt lat="43.17831" lon="1.18347">
        <ele>349</ele>
        <time>2019-02-24T08:49:13.000Z</time>
      </trkpt>
      <trkpt lat="43.17829" lon="1.18347">
        <ele>349</ele>
        <time>2019-02-24T08:49:14.000Z</time>
      </trkpt>
      <trkpt lat="43.17825" lon="1.18347">
        <ele>349</ele>
        <time>2019-02-24T08:49:15.000Z</time>
      </trkpt>
      <trkpt lat="43.17823" lon="1.18347">
        <ele>349</ele>
        <time>2019-02-24T08:49:16.000Z</time>
      </trkpt>
      <trkpt lat="43.1782" lon="1.18347">
        <ele>349</ele>
        <time>2019-02-24T08:49:17.000Z</time>
      </trkpt>
      <trkpt lat="43.17817" lon="1.18348">
        <ele>349</ele>
        <time>2019-02-24T08:49:18.000Z</time>
      </trkpt>
      <trkpt lat="43.17815" lon="1.18348">
        <ele>349</ele>
        <time>2019-02-24T08:49:19.000Z</time>
      </trkpt>
      <trkpt lat="43.17812" lon="1.18347">
        <ele>349.39784739044</ele>
        <time>2019-02-24T08:49:20.000Z</time>
      </trkpt>
      <trkpt lat="43.17809" lon="1.18347">
        <ele>350</ele>
        <time>2019-02-24T08:49:21.000Z</time>
      </trkpt>
      <trkpt lat="43.17807" lon="1.18346">
        <ele>350</ele>
        <time>2019-02-24T08:49:22.000Z</time>
      </trkpt>
      <trkpt lat="43.17804" lon="1.18346">
        <ele>350</ele>
        <time>2019-02-24T08:49:23.000Z</time>
      </trkpt>
      <trkpt lat="43.17801" lon="1.18345">
        <ele>350</ele>
        <time>2019-02-24T08:49:24.000Z</time>
      </trkpt>
      <trkpt lat="43.17798" lon="1.18344">
        <ele>350</ele>
        <time>2019-02-24T08:49:25.000Z</time>
      </trkpt>
      <trkpt lat="43.17795" lon="1.18343">
        <ele>350</ele>
        <time>2019-02-24T08:49:26.000Z</time>
      </trkpt>
      <trkpt lat="43.17793" lon="1.18342">
        <ele>350</ele>
        <time>2019-02-24T08:49:27.000Z</time>
      </trkpt>
      <trkpt lat="43.1779" lon="1.18341">
        <ele>350</ele>
        <time>2019-02-24T08:49:28.000Z</time>
      </trkpt>
      <trkpt lat="43.17787" lon="1.1834">
        <ele>350</ele>
        <time>2019-02-24T08:49:29.000Z</time>
      </trkpt>
      <trkpt lat="43.17784" lon="1.18338">
        <ele>350</ele>
        <time>2019-02-24T08:49:30.000Z</time>
      </trkpt>
      <trkpt lat="43.17782" lon="1.18337">
        <ele>350</ele>
        <time>2019-02-24T08:49:31.000Z</time>
      </trkpt>
      <trkpt lat="43.17779" lon="1.18335">
        <ele>350</ele>
        <time>2019-02-24T08:49:32.000Z</time>
      </trkpt>
      <trkpt lat="43.17777" lon="1.18333">
        <ele>350</ele>
        <time>2019-02-24T08:49:33.000Z</time>
      </trkpt>
      <trkpt lat="43.17774" lon="1.18332">
        <ele>350</ele>
        <time>2019-02-24T08:49:34.000Z</time>
      </trkpt>
      <trkpt lat="43.17772" lon="1.1833">
        <ele>350</ele>
        <time>2019-02-24T08:49:35.000Z</time>
      </trkpt>
      <trkpt lat="43.1777" lon="1.18328">
        <ele>350</ele>
        <time>2019-02-24T08:49:36.000Z</time>
      </trkpt>
      <trkpt lat="43.17767" lon="1.18326">
        <ele>350</ele>
        <time>2019-02-24T08:49:37.000Z</time>
      </trkpt>
      <trkpt lat="43.17765" lon="1.18324">
        <ele>350</ele>
        <time>2019-02-24T08:49:38.000Z</time>
      </trkpt>
      <trkpt lat="43.17763" lon="1.18322">
        <ele>350</ele>
        <time>2019-02-24T08:49:39.000Z</time>
      </trkpt>
      <trkpt lat="43.17761" lon="1.18321">
        <ele>350</ele>
        <time>2019-02-24T08:49:40.000Z</time>
      </trkpt>
      <trkpt lat="43.17759" lon="1.18319">
        <ele>350</ele>
        <time>2019-02-24T08:49:41.000Z</time>
      </trkpt>
      <trkpt lat="43.17757" lon="1.18318">
        <ele>350.38938163365</ele>
        <time>2019-02-24T08:49:42.000Z</time>
      </trkpt>
      <trkpt lat="43.17755" lon="1.18316">
        <ele>351</ele>
        <time>2019-02-24T08:49:43.000Z</time>
      </trkpt>
      <trkpt lat="43.17752" lon="1.18314">
        <ele>351</ele>
        <time>2019-02-24T08:49:44.000Z</time>
      </trkpt>
      <trkpt lat="43.1775" lon="1.18312">
        <ele>351</ele>
        <time>2019-02-24T08:49:45.000Z</time>
      </trkpt>
      <trkpt lat="43.17748" lon="1.1831">
        <ele>351</ele>
        <time>2019-02-24T08:49:46.000Z</time>
      </trkpt>
      <trkpt lat="43.17745" lon="1.18308">
        <ele>351.40090996893</ele>
        <time>2019-02-24T08:49:47.000Z</time>
      </trkpt>
      <trkpt lat="43.17743" lon="1.18307">
        <ele>352</ele>
        <time>2019-02-24T08:49:48.000Z</time>
      </trkpt>
      <trkpt lat="43.17741" lon="1.18306">
        <ele>352</ele>
        <time>2019-02-24T08:49:49.000Z</time>
      </trkpt>
      <trkpt lat="43.17738" lon="1.18304">
        <ele>352.33638280838</ele>
        <time>2019-02-24T08:49:50.000Z</time>
      </trkpt>
      <trkpt lat="43.17736" lon="1.18303">
        <ele>353</ele>
        <time>2019-02-24T08:49:51.000Z</time>
      </trkpt>
      <trkpt lat="43.17734" lon="1.18302">
        <ele>353</ele>
        <time>2019-02-24T08:49:52.000Z</time>
      </trkpt>
      <trkpt lat="43.17731" lon="1.18302">
        <ele>353.39827495935</ele>
        <time>2019-02-24T08:49:53.000Z</time>
      </trkpt>
      <trkpt lat="43.17729" lon="1.183">
        <ele>354</ele>
        <time>2019-02-24T08:49:54.000Z</time>
      </trkpt>
      <trkpt lat="43.17727" lon="1.18299">
        <ele>354</ele>
        <time>2019-02-24T08:49:55.000Z</time>
      </trkpt>
      <trkpt lat="43.17724" lon="1.18299">
        <ele>354</ele>
        <time>2019-02-24T08:49:56.000Z</time>
      </trkpt>
      <trkpt lat="43.17722" lon="1.18298">
        <ele>354</ele>
        <time>2019-02-24T08:49:57.000Z</time>
      </trkpt>
      <trkpt lat="43.17719" lon="1.18297">
        <ele>354</ele>
        <time>2019-02-24T08:49:58.000Z</time>
      </trkpt>
      <trkpt lat="43.17716" lon="1.18296">
        <ele>354</ele>
        <time>2019-02-24T08:49:59.000Z</time>
      </trkpt>
      <trkpt lat="43.17713" lon="1.18295">
        <ele>354.0092562963</ele>
        <time>2019-02-24T08:50:00.000Z</time>
      </trkpt>
      <trkpt lat="43.17711" lon="1.18294">
        <ele>354.93518222222</ele>
        <time>2019-02-24T08:50:01.000Z</time>
      </trkpt>
      <trkpt lat="43.17708" lon="1.18294">
        <ele>355</ele>
        <time>2019-02-24T08:50:02.000Z</time>
      </trkpt>
      <trkpt lat="43.17705" lon="1.18293">
        <ele>355</ele>
        <time>2019-02-24T08:50:03.000Z</time>
      </trkpt>
      <trkpt lat="43.17703" lon="1.18292">
        <ele>355</ele>
        <time>2019-02-24T08:50:04.000Z</time>
      </trkpt>
      <trkpt lat="43.177" lon="1.18293">
        <ele>355</ele>
        <time>2019-02-24T08:50:05.000Z</time>
      </trkpt>
      <trkpt lat="43.17697" lon="1.18293">
        <ele>355</ele>
        <time>2019-02-24T08:50:06.000Z</time>
      </trkpt>
      <trkpt lat="43.17695" lon="1.18293">
        <ele>355</ele>
        <time>2019-02-24T08:50:07.000Z</time>
      </trkpt>
      <trkpt lat="43.17692" lon="1.18293">
        <ele>355</ele>
        <time>2019-02-24T08:50:08.000Z</time>
      </trkpt>
      <trkpt lat="43.1769" lon="1.18293">
        <ele>355</ele>
        <time>2019-02-24T08:50:09.000Z</time>
      </trkpt>
      <trkpt lat="43.17687" lon="1.18293">
        <ele>355</ele>
        <time>2019-02-24T08:50:10.000Z</time>
      </trkpt>
      <trkpt lat="43.17685" lon="1.18294">
        <ele>355</ele>
        <time>2019-02-24T08:50:11.000Z</time>
      </trkpt>
      <trkpt lat="43.17682" lon="1.18294">
        <ele>355</ele>
        <time>2019-02-24T08:50:12.000Z</time>
      </trkpt>
      <trkpt lat="43.17679" lon="1.18295">
        <ele>355</ele>
        <time>2019-02-24T08:50:13.000Z</time>
      </trkpt>
      <trkpt lat="43.17677" lon="1.18295">
        <ele>355</ele>
        <time>2019-02-24T08:50:14.000Z</time>
      </trkpt>
      <trkpt lat="43.17674" lon="1.18296">
        <ele>355</ele>
        <time>2019-02-24T08:50:15.000Z</time>
      </trkpt>
      <trkpt lat="43.17671" lon="1.18296">
        <ele>355</ele>
        <time>2019-02-24T08:50:16.000Z</time>
      </trkpt>
      <trkpt lat="43.17668" lon="1.18296">
        <ele>355</ele>
        <time>2019-02-24T08:50:17.000Z</time>
      </trkpt>
      <trkpt lat="43.17666" lon="1.18297">
        <ele>355</ele>
        <time>2019-02-24T08:50:18.000Z</time>
      </trkpt>
      <trkpt lat="43.17663" lon="1.18297">
        <ele>355</ele>
        <time>2019-02-24T08:50:19.000Z</time>
      </trkpt>
      <trkpt lat="43.17661" lon="1.18297">
        <ele>355</ele>
        <time>2019-02-24T08:50:20.000Z</time>
      </trkpt>
      <trkpt lat="43.17658" lon="1.18297">
        <ele>355</ele>
        <time>2019-02-24T08:50:21.000Z</time>
      </trkpt>
      <trkpt lat="43.17655" lon="1.18297">
        <ele>355</ele>
        <time>2019-02-24T08:50:22.000Z</time>
      </trkpt>
      <trkpt lat="43.17652" lon="1.18297">
        <ele>355</ele>
        <time>2019-02-24T08:50:23.000Z</time>
      </trkpt>
      <trkpt lat="43.1765" lon="1.18297">
        <ele>355</ele>
        <time>2019-02-24T08:50:24.000Z</time>
      </trkpt>
      <trkpt lat="43.17647" lon="1.18297">
        <ele>355</ele>
        <time>2019-02-24T08:50:25.000Z</time>
      </trkpt>
      <trkpt lat="43.17645" lon="1.18297">
        <ele>355</ele>
        <time>2019-02-24T08:50:26.000Z</time>
      </trkpt>
      <trkpt lat="43.17642" lon="1.18296">
        <ele>355</ele>
        <time>2019-02-24T08:50:27.000Z</time>
      </trkpt>
      <trkpt lat="43.17639" lon="1.18296">
        <ele>355</ele>
        <time>2019-02-24T08:50:28.000Z</time>
      </trkpt>
      <trkpt lat="43.17637" lon="1.18295">
        <ele>355</ele>
        <time>2019-02-24T08:50:29.000Z</time>
      </trkpt>
      <trkpt lat="43.17634" lon="1.18294">
        <ele>355</ele>
        <time>2019-02-24T08:50:30.000Z</time>
      </trkpt>
      <trkpt lat="43.17632" lon="1.18294">
        <ele>355</ele>
        <time>2019-02-24T08:50:31.000Z</time>
      </trkpt>
      <trkpt lat="43.17629" lon="1.18294">
        <ele>355</ele>
        <time>2019-02-24T08:50:32.000Z</time>
      </trkpt>
      <trkpt lat="43.17626" lon="1.18293">
        <ele>355</ele>
        <time>2019-02-24T08:50:33.000Z</time>
      </trkpt>
      <trkpt lat="43.17623" lon="1.18293">
        <ele>355.44</ele>
        <time>2019-02-24T08:50:34.000Z</time>
      </trkpt>
      <trkpt lat="43.17621" lon="1.18292">
        <ele>356</ele>
        <time>2019-02-24T08:50:35.000Z</time>
      </trkpt>
      <trkpt lat="43.17618" lon="1.18291">
        <ele>356</ele>
        <time>2019-02-24T08:50:36.000Z</time>
      </trkpt>
      <trkpt lat="43.17616" lon="1.1829">
        <ele>356</ele>
        <time>2019-02-24T08:50:37.000Z</time>
      </trkpt>
      <trkpt lat="43.17613" lon="1.18289">
        <ele>356</ele>
        <time>2019-02-24T08:50:38.000Z</time>
      </trkpt>
      <trkpt lat="43.1761" lon="1.18288">
        <ele>356</ele>
        <time>2019-02-24T08:50:39.000Z</time>
      </trkpt>
      <trkpt lat="43.17608" lon="1.18286">
        <ele>356</ele>
        <time>2019-02-24T08:50:40.000Z</time>
      </trkpt>
      <trkpt lat="43.17605" lon="1.18285">
        <ele>356</ele>
        <time>2019-02-24T08:50:41.000Z</time>
      </trkpt>
      <trkpt lat="43.17602" lon="1.18283">
        <ele>356</ele>
        <time>2019-02-24T08:50:42.000Z</time>
      </trkpt>
      <trkpt lat="43.176" lon="1.18281">
        <ele>356</ele>
        <time>2019-02-24T08:50:43.000Z</time>
      </trkpt>
      <trkpt lat="43.17597" lon="1.18279">
        <ele>355.56</ele>
        <time>2019-02-24T08:50:44.000Z</time>
      </trkpt>
      <trkpt lat="43.17594" lon="1.18276">
        <ele>355</ele>
        <time>2019-02-24T08:50:45.000Z</time>
      </trkpt>
      <trkpt lat="43.17592" lon="1.18274">
        <ele>355</ele>
        <time>2019-02-24T08:50:46.000Z</time>
      </trkpt>
      <trkpt lat="43.17589" lon="1.18271">
        <ele>355</ele>
        <time>2019-02-24T08:50:47.000Z</time>
      </trkpt>
      <trkpt lat="43.17586" lon="1.18269">
        <ele>355</ele>
        <time>2019-02-24T08:50:48.000Z</time>
      </trkpt>
      <trkpt lat="43.17584" lon="1.18267">
        <ele>355</ele>
        <time>2019-02-24T08:50:49.000Z</time>
      </trkpt>
      <trkpt lat="43.17581" lon="1.18264">
        <ele>355</ele>
        <time>2019-02-24T08:50:50.000Z</time>
      </trkpt>
      <trkpt lat="43.17579" lon="1.18261">
        <ele>355</ele>
        <time>2019-02-24T08:50:51.000Z</time>
      </trkpt>
      <trkpt lat="43.17577" lon="1.18259">
        <ele>355</ele>
        <time>2019-02-24T08:50:52.000Z</time>
      </trkpt>
      <trkpt lat="43.17574" lon="1.18256">
        <ele>355</ele>
        <time>2019-02-24T08:50:53.000Z</time>
      </trkpt>
      <trkpt lat="43.17572" lon="1.18254">
        <ele>355</ele>
        <time>2019-02-24T08:50:54.000Z</time>
      </trkpt>
      <trkpt lat="43.17569" lon="1.18252">
        <ele>355</ele>
        <time>2019-02-24T08:50:55.000Z</time>
      </trkpt>
      <trkpt lat="43.17567" lon="1.1825">
        <ele>354.65115794487</ele>
        <time>2019-02-24T08:50:56.000Z</time>
      </trkpt>
      <trkpt lat="43.17564" lon="1.18248">
        <ele>354</ele>
        <time>2019-02-24T08:50:57.000Z</time>
      </trkpt>
      <trkpt lat="43.17561" lon="1.18245">
        <ele>353.57281686115</ele>
        <time>2019-02-24T08:50:58.000Z</time>
      </trkpt>
      <trkpt lat="43.17558" lon="1.18243">
        <ele>353</ele>
        <time>2019-02-24T08:50:59.000Z</time>
      </trkpt>
      <trkpt lat="43.17555" lon="1.1824">
        <ele>352.64227735343</ele>
        <time>2019-02-24T08:51:00.000Z</time>
      </trkpt>
      <trkpt lat="43.17552" lon="1.18238">
        <ele>352</ele>
        <time>2019-02-24T08:51:01.000Z</time>
      </trkpt>
      <trkpt lat="43.17549" lon="1.18235">
        <ele>352</ele>
        <time>2019-02-24T08:51:02.000Z</time>
      </trkpt>
      <trkpt lat="43.17546" lon="1.18232">
        <ele>351.57692307692</ele>
        <time>2019-02-24T08:51:03.000Z</time>
      </trkpt>
      <trkpt lat="43.17544" lon="1.18229">
        <ele>351</ele>
        <time>2019-02-24T08:51:04.000Z</time>
      </trkpt>
      <trkpt lat="43.17542" lon="1.18227">
        <ele>350.60360474637</ele>
        <time>2019-02-24T08:51:05.000Z</time>
      </trkpt>
      <trkpt lat="43.1754" lon="1.18224">
        <ele>350</ele>
        <time>2019-02-24T08:51:06.000Z</time>
      </trkpt>
      <trkpt lat="43.17538" lon="1.18222">
        <ele>350</ele>
        <time>2019-02-24T08:51:07.000Z</time>
      </trkpt>
      <trkpt lat="43.17535" lon="1.1822">
        <ele>350</ele>
        <time>2019-02-24T08:51:08.000Z</time>
      </trkpt>
      <trkpt lat="43.17526" lon="1.18211">
        <ele>350</ele>
        <time>2019-02-24T08:51:11.000Z</time>
      </trkpt>
      <trkpt lat="43.17523" lon="1.18209">
        <ele>350</ele>
        <time>2019-02-24T08:51:12.000Z</time>
      </trkpt>
      <trkpt lat="43.1752" lon="1.18206">
        <ele>350</ele>
        <time>2019-02-24T08:51:13.000Z</time>
      </trkpt>
      <trkpt lat="43.17518" lon="1.18204">
        <ele>349.59259259259</ele>
        <time>2019-02-24T08:51:14.000Z</time>
      </trkpt>
      <trkpt lat="43.17515" lon="1.18201">
        <ele>349</ele>
        <time>2019-02-24T08:51:15.000Z</time>
      </trkpt>
      <trkpt lat="43.17506" lon="1.18194">
        <ele>349</ele>
        <time>2019-02-24T08:51:18.000Z</time>
      </trkpt>
      <trkpt lat="43.17504" lon="1.18192">
        <ele>349</ele>
        <time>2019-02-24T08:51:19.000Z</time>
      </trkpt>
      <trkpt lat="43.17499" lon="1.18186">
        <ele>349.38938163365</ele>
        <time>2019-02-24T08:51:21.000Z</time>
      </trkpt>
      <trkpt lat="43.17497" lon="1.18184">
        <ele>350</ele>
        <time>2019-02-24T08:51:22.000Z</time>
      </trkpt>
      <trkpt lat="43.17495" lon="1.18181">
        <ele>350</ele>
        <time>2019-02-24T08:51:23.000Z</time>
      </trkpt>
      <trkpt lat="43.17492" lon="1.18179">
        <ele>349.57281686115</ele>
        <time>2019-02-24T08:51:24.000Z</time>
      </trkpt>
      <trkpt lat="43.17489" lon="1.18177">
        <ele>349.32031</ele>
        <time>2019-02-24T08:51:25.000Z</time>
      </trkpt>
      <trkpt lat="43.17483" lon="1.18167">
        <ele>349.61061836635</ele>
        <time>2019-02-24T08:51:28.000Z</time>
      </trkpt>
      <trkpt lat="43.17482" lon="1.18158">
        <ele>349</ele>
        <time>2019-02-24T08:51:30.000Z</time>
      </trkpt>
      <trkpt lat="43.17481" lon="1.18149">
        <ele>347.57143230323</ele>
        <time>2019-02-24T08:51:32.000Z</time>
      </trkpt>
      <trkpt lat="43.1748" lon="1.18145">
        <ele>347</ele>
        <time>2019-02-24T08:51:33.000Z</time>
      </trkpt>
      <trkpt lat="43.1748" lon="1.1814">
        <ele>347</ele>
        <time>2019-02-24T08:51:34.000Z</time>
      </trkpt>
      <trkpt lat="43.17479" lon="1.18137">
        <ele>346.56</ele>
        <time>2019-02-24T08:51:35.000Z</time>
      </trkpt>
      <trkpt lat="43.17478" lon="1.18133">
        <ele>346</ele>
        <time>2019-02-24T08:51:36.000Z</time>
      </trkpt>
      <trkpt lat="43.17476" lon="1.18129">
        <ele>346</ele>
        <time>2019-02-24T08:51:37.000Z</time>
      </trkpt>
      <trkpt lat="43.17476" lon="1.18126">
        <ele>345.58878627653</ele>
        <time>2019-02-24T08:51:38.000Z</time>
      </trkpt>
      <trkpt lat="43.17475" lon="1.18122">
        <ele>344.60215260956</ele>
        <time>2019-02-24T08:51:39.000Z</time>
      </trkpt>
      <trkpt lat="43.17474" lon="1.18119">
        <ele>344</ele>
        <time>2019-02-24T08:51:40.000Z</time>
      </trkpt>
      <trkpt lat="43.17473" lon="1.18115">
        <ele>344</ele>
        <time>2019-02-24T08:51:41.000Z</time>
      </trkpt>
      <trkpt lat="43.17472" lon="1.18112">
        <ele>344</ele>
        <time>2019-02-24T08:51:42.000Z</time>
      </trkpt>
      <trkpt lat="43.17469" lon="1.18098">
        <ele>343</ele>
        <time>2019-02-24T08:51:45.000Z</time>
      </trkpt>
      <trkpt lat="43.17469" lon="1.18094">
        <ele>343</ele>
        <time>2019-02-24T08:51:46.000Z</time>
      </trkpt>
      <trkpt lat="43.17468" lon="1.18089">
        <ele>342.60215260956</ele>
        <time>2019-02-24T08:51:47.000Z</time>
      </trkpt>
      <trkpt lat="43.17467" lon="1.18085">
        <ele>341.61403725453</ele>
        <time>2019-02-24T08:51:48.000Z</time>
      </trkpt>
      <trkpt lat="43.17467" lon="1.18081">
        <ele>340.6511676366</ele>
        <time>2019-02-24T08:51:49.000Z</time>
      </trkpt>
      <trkpt lat="43.17466" lon="1.18076">
        <ele>340</ele>
        <time>2019-02-24T08:51:50.000Z</time>
      </trkpt>
      <trkpt lat="43.17465" lon="1.18072">
        <ele>340</ele>
        <time>2019-02-24T08:51:51.000Z</time>
      </trkpt>
      <trkpt lat="43.17464" lon="1.18069">
        <ele>339.58333333333</ele>
        <time>2019-02-24T08:51:52.000Z</time>
      </trkpt>
      <trkpt lat="43.17463" lon="1.18064">
        <ele>338.60000232726</ele>
        <time>2019-02-24T08:51:53.000Z</time>
      </trkpt>
      <trkpt lat="43.17462" lon="1.1806">
        <ele>337.62222664695</ele>
        <time>2019-02-24T08:51:54.000Z</time>
      </trkpt>
      <trkpt lat="43.17462" lon="1.18055">
        <ele>337</ele>
        <time>2019-02-24T08:51:55.000Z</time>
      </trkpt>
      <trkpt lat="43.17461" lon="1.18051">
        <ele>336.57281686115</ele>
        <time>2019-02-24T08:51:56.000Z</time>
      </trkpt>
      <trkpt lat="43.1746" lon="1.18047">
        <ele>336</ele>
        <time>2019-02-24T08:51:57.000Z</time>
      </trkpt>
      <trkpt lat="43.17459" lon="1.18037">
        <ele>335.56</ele>
        <time>2019-02-24T08:51:59.000Z</time>
      </trkpt>
      <trkpt lat="43.17459" lon="1.18032">
        <ele>334.63025309512</ele>
        <time>2019-02-24T08:52:00.000Z</time>
      </trkpt>
      <trkpt lat="43.17458" lon="1.18024">
        <ele>333.56</ele>
        <time>2019-02-24T08:52:02.000Z</time>
      </trkpt>
      <trkpt lat="43.17457" lon="1.18019">
        <ele>332.67407484664</ele>
        <time>2019-02-24T08:52:03.000Z</time>
      </trkpt>
      <trkpt lat="43.17457" lon="1.18015">
        <ele>331.86154270298</ele>
        <time>2019-02-24T08:52:04.000Z</time>
      </trkpt>
      <trkpt lat="43.17456" lon="1.1801">
        <ele>331</ele>
        <time>2019-02-24T08:52:05.000Z</time>
      </trkpt>
      <trkpt lat="43.17456" lon="1.18006">
        <ele>330.67469619394</ele>
        <time>2019-02-24T08:52:06.000Z</time>
      </trkpt>
      <trkpt lat="43.17456" lon="1.18001">
        <ele>329.56</ele>
        <time>2019-02-24T08:52:07.000Z</time>
      </trkpt>
      <trkpt lat="43.17456" lon="1.17996">
        <ele>329</ele>
        <time>2019-02-24T08:52:08.000Z</time>
      </trkpt>
      <trkpt lat="43.17457" lon="1.17991">
        <ele>329</ele>
        <time>2019-02-24T08:52:09.000Z</time>
      </trkpt>
      <trkpt lat="43.17457" lon="1.17987">
        <ele>328.69013944852</ele>
        <time>2019-02-24T08:52:10.000Z</time>
      </trkpt>
      <trkpt lat="43.17459" lon="1.17983">
        <ele>327.96550658751</ele>
        <time>2019-02-24T08:52:11.000Z</time>
      </trkpt>
      <trkpt lat="43.1746" lon="1.17978">
        <ele>327</ele>
        <time>2019-02-24T08:52:12.000Z</time>
      </trkpt>
      <trkpt lat="43.17461" lon="1.17972">
        <ele>327</ele>
        <time>2019-02-24T08:52:13.000Z</time>
      </trkpt>
      <trkpt lat="43.17462" lon="1.17968">
        <ele>326.60869565217</ele>
        <time>2019-02-24T08:52:14.000Z</time>
      </trkpt>
      <trkpt lat="43.17463" lon="1.17964">
        <ele>325.56</ele>
        <time>2019-02-24T08:52:15.000Z</time>
      </trkpt>
      <trkpt lat="43.17465" lon="1.17959">
        <ele>325</ele>
        <time>2019-02-24T08:52:16.000Z</time>
      </trkpt>
      <trkpt lat="43.17466" lon="1.17955">
        <ele>324.56565473728</ele>
        <time>2019-02-24T08:52:17.000Z</time>
      </trkpt>
      <trkpt lat="43.17468" lon="1.17951">
        <ele>323.59259259259</ele>
        <time>2019-02-24T08:52:18.000Z</time>
      </trkpt>
      <trkpt lat="43.17469" lon="1.17946">
        <ele>322.60869565217</ele>
        <time>2019-02-24T08:52:19.000Z</time>
      </trkpt>
      <trkpt lat="43.17471" lon="1.17942">
        <ele>322</ele>
        <time>2019-02-24T08:52:20.000Z</time>
      </trkpt>
      <trkpt lat="43.17472" lon="1.17938">
        <ele>321.56</ele>
        <time>2019-02-24T08:52:21.000Z</time>
      </trkpt>
      <trkpt lat="43.17474" lon="1.17934">
        <ele>321</ele>
        <time>2019-02-24T08:52:22.000Z</time>
      </trkpt>
      <trkpt lat="43.17475" lon="1.1793">
        <ele>321</ele>
        <time>2019-02-24T08:52:23.000Z</time>
      </trkpt>
      <trkpt lat="43.17477" lon="1.17927">
        <ele>321</ele>
        <time>2019-02-24T08:52:24.000Z</time>
      </trkpt>
      <trkpt lat="43.17479" lon="1.17923">
        <ele>320.71199926272</ele>
        <time>2019-02-24T08:52:25.000Z</time>
      </trkpt>
      <trkpt lat="43.17481" lon="1.1792">
        <ele>319.83581690356</ele>
        <time>2019-02-24T08:52:26.000Z</time>
      </trkpt>
      <trkpt lat="43.17483" lon="1.17916">
        <ele>319</ele>
        <time>2019-02-24T08:52:27.000Z</time>
      </trkpt>
      <trkpt lat="43.17485" lon="1.17913">
        <ele>319</ele>
        <time>2019-02-24T08:52:28.000Z</time>
      </trkpt>
      <trkpt lat="43.17487" lon="1.1791">
        <ele>319</ele>
        <time>2019-02-24T08:52:29.000Z</time>
      </trkpt>
      <trkpt lat="43.17489" lon="1.17906">
        <ele>319</ele>
        <time>2019-02-24T08:52:30.000Z</time>
      </trkpt>
      <trkpt lat="43.17491" lon="1.17902">
        <ele>318.6153824514</ele>
        <time>2019-02-24T08:52:31.000Z</time>
      </trkpt>
      <trkpt lat="43.17493" lon="1.17899">
        <ele>318</ele>
        <time>2019-02-24T08:52:32.000Z</time>
      </trkpt>
      <trkpt lat="43.17495" lon="1.17895">
        <ele>318</ele>
        <time>2019-02-24T08:52:33.000Z</time>
      </trkpt>
      <trkpt lat="43.17496" lon="1.17892">
        <ele>318</ele>
        <time>2019-02-24T08:52:34.000Z</time>
      </trkpt>
      <trkpt lat="43.17498" lon="1.17888">
        <ele>317.58878627653</ele>
        <time>2019-02-24T08:52:35.000Z</time>
      </trkpt>
      <trkpt lat="43.17499" lon="1.17884">
        <ele>317</ele>
        <time>2019-02-24T08:52:36.000Z</time>
      </trkpt>
      <trkpt lat="43.175" lon="1.1788">
        <ele>316.56</ele>
        <time>2019-02-24T08:52:37.000Z</time>
      </trkpt>
      <trkpt lat="43.175" lon="1.17877">
        <ele>315.56</ele>
        <time>2019-02-24T08:52:38.000Z</time>
      </trkpt>
      <trkpt lat="43.175" lon="1.17873">
        <ele>315</ele>
        <time>2019-02-24T08:52:39.000Z</time>
      </trkpt>
      <trkpt lat="43.17499" lon="1.17869">
        <ele>314.57692307692</ele>
        <time>2019-02-24T08:52:40.000Z</time>
      </trkpt>
      <trkpt lat="43.17499" lon="1.17865">
        <ele>313.75757528742</ele>
        <time>2019-02-24T08:52:41.000Z</time>
      </trkpt>
      <trkpt lat="43.17498" lon="1.17861">
        <ele>313.15151350597</ele>
        <time>2019-02-24T08:52:42.000Z</time>
      </trkpt>
      <trkpt lat="43.17497" lon="1.17856">
        <ele>313</ele>
        <time>2019-02-24T08:52:43.000Z</time>
      </trkpt>
      <trkpt lat="43.17496" lon="1.17851">
        <ele>312.63636363636</ele>
        <time>2019-02-24T08:52:44.000Z</time>
      </trkpt>
      <trkpt lat="43.17495" lon="1.17847">
        <ele>311.56</ele>
        <time>2019-02-24T08:52:45.000Z</time>
      </trkpt>
      <trkpt lat="43.17494" lon="1.17842">
        <ele>311</ele>
        <time>2019-02-24T08:52:46.000Z</time>
      </trkpt>
      <trkpt lat="43.17493" lon="1.17837">
        <ele>311</ele>
        <time>2019-02-24T08:52:47.000Z</time>
      </trkpt>
      <trkpt lat="43.17493" lon="1.17833">
        <ele>310.59259259259</ele>
        <time>2019-02-24T08:52:48.000Z</time>
      </trkpt>
      <trkpt lat="43.17492" lon="1.1783">
        <ele>310</ele>
        <time>2019-02-24T08:52:49.000Z</time>
      </trkpt>
      <trkpt lat="43.17492" lon="1.17826">
        <ele>310</ele>
        <time>2019-02-24T08:52:50.000Z</time>
      </trkpt>
      <trkpt lat="43.17491" lon="1.17822">
        <ele>309.56</ele>
        <time>2019-02-24T08:52:51.000Z</time>
      </trkpt>
      <trkpt lat="43.1749" lon="1.17818">
        <ele>309</ele>
        <time>2019-02-24T08:52:52.000Z</time>
      </trkpt>
      <trkpt lat="43.17489" lon="1.17814">
        <ele>309</ele>
        <time>2019-02-24T08:52:53.000Z</time>
      </trkpt>
      <trkpt lat="43.17489" lon="1.1781">
        <ele>308.60215260956</ele>
        <time>2019-02-24T08:52:54.000Z</time>
      </trkpt>
      <trkpt lat="43.17488" lon="1.17806">
        <ele>307.61403292089</ele>
        <time>2019-02-24T08:52:55.000Z</time>
      </trkpt>
      <trkpt lat="43.17487" lon="1.17801">
        <ele>306.65115794487</ele>
        <time>2019-02-24T08:52:56.000Z</time>
      </trkpt>
      <trkpt lat="43.17484" lon="1.1779">
        <ele>306</ele>
        <time>2019-02-24T08:52:59.000Z</time>
      </trkpt>
      <trkpt lat="43.17483" lon="1.17786">
        <ele>306</ele>
        <time>2019-02-24T08:53:00.000Z</time>
      </trkpt>
      <trkpt lat="43.17483" lon="1.17782">
        <ele>306</ele>
        <time>2019-02-24T08:53:01.000Z</time>
      </trkpt>
      <trkpt lat="43.17482" lon="1.17778">
        <ele>306</ele>
        <time>2019-02-24T08:53:02.000Z</time>
      </trkpt>
      <trkpt lat="43.17481" lon="1.17774">
        <ele>305.17757255305</ele>
        <time>2019-02-24T08:53:03.000Z</time>
      </trkpt>
      <trkpt lat="43.1748" lon="1.1777">
        <ele>304</ele>
        <time>2019-02-24T08:53:04.000Z</time>
      </trkpt>
      <trkpt lat="43.17479" lon="1.17766">
        <ele>304</ele>
        <time>2019-02-24T08:53:05.000Z</time>
      </trkpt>
      <trkpt lat="43.17477" lon="1.17763">
        <ele>303.64367579338</ele>
        <time>2019-02-24T08:53:06.000Z</time>
      </trkpt>
      <trkpt lat="43.17476" lon="1.17759">
        <ele>303</ele>
        <time>2019-02-24T08:53:07.000Z</time>
      </trkpt>
      <trkpt lat="43.17473" lon="1.17751">
        <ele>303</ele>
        <time>2019-02-24T08:53:09.000Z</time>
      </trkpt>
      <trkpt lat="43.17473" lon="1.17748">
        <ele>303</ele>
        <time>2019-02-24T08:53:10.000Z</time>
      </trkpt>
      <trkpt lat="43.17471" lon="1.17745">
        <ele>302.62221779756</ele>
        <time>2019-02-24T08:53:11.000Z</time>
      </trkpt>
      <trkpt lat="43.17464" lon="1.17734">
        <ele>303</ele>
        <time>2019-02-24T08:53:15.000Z</time>
      </trkpt>
      <trkpt lat="43.1746" lon="1.17726">
        <ele>304</ele>
        <time>2019-02-24T08:53:17.000Z</time>
      </trkpt>
      <trkpt lat="43.17459" lon="1.17723">
        <ele>304</ele>
        <time>2019-02-24T08:53:18.000Z</time>
      </trkpt>
      <trkpt lat="43.17453" lon="1.17714">
        <ele>305</ele>
        <time>2019-02-24T08:53:21.000Z</time>
      </trkpt>
      <trkpt lat="43.17451" lon="1.17711">
        <ele>305.3846175486</ele>
        <time>2019-02-24T08:53:22.000Z</time>
      </trkpt>
      <trkpt lat="43.1745" lon="1.17707">
        <ele>306</ele>
        <time>2019-02-24T08:53:23.000Z</time>
      </trkpt>
      <trkpt lat="43.17448" lon="1.17704">
        <ele>306.43564494462</ele>
        <time>2019-02-24T08:53:24.000Z</time>
      </trkpt>
      <trkpt lat="43.17446" lon="1.177">
        <ele>307</ele>
        <time>2019-02-24T08:53:25.000Z</time>
      </trkpt>
      <trkpt lat="43.17444" lon="1.17698">
        <ele>307.40740740741</ele>
        <time>2019-02-24T08:53:26.000Z</time>
      </trkpt>
      <trkpt lat="43.17443" lon="1.17694">
        <ele>308</ele>
        <time>2019-02-24T08:53:27.000Z</time>
      </trkpt>
      <trkpt lat="43.17441" lon="1.17691">
        <ele>308</ele>
        <time>2019-02-24T08:53:28.000Z</time>
      </trkpt>
      <trkpt lat="43.17439" lon="1.17687">
        <ele>308.44</ele>
        <time>2019-02-24T08:53:29.000Z</time>
      </trkpt>
      <trkpt lat="43.17438" lon="1.17684">
        <ele>309</ele>
        <time>2019-02-24T08:53:30.000Z</time>
      </trkpt>
      <trkpt lat="43.17436" lon="1.17681">
        <ele>309</ele>
        <time>2019-02-24T08:53:31.000Z</time>
      </trkpt>
      <trkpt lat="43.17435" lon="1.17677">
        <ele>309.08196239718</ele>
        <time>2019-02-24T08:53:32.000Z</time>
      </trkpt>
      <trkpt lat="43.17434" lon="1.17674">
        <ele>310</ele>
        <time>2019-02-24T08:53:33.000Z</time>
      </trkpt>
      <trkpt lat="43.17432" lon="1.17671">
        <ele>310.41904889615</ele>
        <time>2019-02-24T08:53:34.000Z</time>
      </trkpt>
      <trkpt lat="43.17431" lon="1.17668">
        <ele>311</ele>
        <time>2019-02-24T08:53:35.000Z</time>
      </trkpt>
      <trkpt lat="43.17429" lon="1.17665">
        <ele>311.39639525363</ele>
        <time>2019-02-24T08:53:36.000Z</time>
      </trkpt>
      <trkpt lat="43.17428" lon="1.17662">
        <ele>312</ele>
        <time>2019-02-24T08:53:37.000Z</time>
      </trkpt>
      <trkpt lat="43.17427" lon="1.17658">
        <ele>312.3384598722</ele>
        <time>2019-02-24T08:53:38.000Z</time>
      </trkpt>
      <trkpt lat="43.17425" lon="1.17655">
        <ele>313</ele>
        <time>2019-02-24T08:53:39.000Z</time>
      </trkpt>
      <trkpt lat="43.17423" lon="1.17652">
        <ele>313</ele>
        <time>2019-02-24T08:53:40.000Z</time>
      </trkpt>
      <trkpt lat="43.17422" lon="1.17649">
        <ele>313</ele>
        <time>2019-02-24T08:53:41.000Z</time>
      </trkpt>
      <trkpt lat="43.1742" lon="1.17646">
        <ele>313.44</ele>
        <time>2019-02-24T08:53:42.000Z</time>
      </trkpt>
      <trkpt lat="43.17415" lon="1.17638">
        <ele>315.42307692308</ele>
        <time>2019-02-24T08:53:45.000Z</time>
      </trkpt>
      <trkpt lat="43.17411" lon="1.17625">
        <ele>317</ele>
        <time>2019-02-24T08:53:49.000Z</time>
      </trkpt>
      <trkpt lat="43.17407" lon="1.17613">
        <ele>319</ele>
        <time>2019-02-24T08:53:53.000Z</time>
      </trkpt>
      <trkpt lat="43.17403" lon="1.17601">
        <ele>320</ele>
        <time>2019-02-24T08:53:57.000Z</time>
      </trkpt>
      <trkpt lat="43.17401" lon="1.17596">
        <ele>320</ele>
        <time>2019-02-24T08:53:59.000Z</time>
      </trkpt>
      <trkpt lat="43.174" lon="1.17594">
        <ele>320</ele>
        <time>2019-02-24T08:54:00.000Z</time>
      </trkpt>
      <trkpt lat="43.17399" lon="1.17591">
        <ele>320</ele>
        <time>2019-02-24T08:54:01.000Z</time>
      </trkpt>
      <trkpt lat="43.17398" lon="1.17588">
        <ele>320</ele>
        <time>2019-02-24T08:54:02.000Z</time>
      </trkpt>
      <trkpt lat="43.17397" lon="1.17586">
        <ele>320</ele>
        <time>2019-02-24T08:54:03.000Z</time>
      </trkpt>
      <trkpt lat="43.17396" lon="1.17584">
        <ele>320.41666666667</ele>
        <time>2019-02-24T08:54:04.000Z</time>
      </trkpt>
      <trkpt lat="43.17395" lon="1.17581">
        <ele>321</ele>
        <time>2019-02-24T08:54:05.000Z</time>
      </trkpt>
      <trkpt lat="43.17394" lon="1.17579">
        <ele>321</ele>
        <time>2019-02-24T08:54:06.000Z</time>
      </trkpt>
      <trkpt lat="43.17393" lon="1.17576">
        <ele>321</ele>
        <time>2019-02-24T08:54:07.000Z</time>
      </trkpt>
      <trkpt lat="43.17392" lon="1.17574">
        <ele>321.43564494462</ele>
        <time>2019-02-24T08:54:08.000Z</time>
      </trkpt>
      <trkpt lat="43.17391" lon="1.17571">
        <ele>322</ele>
        <time>2019-02-24T08:54:09.000Z</time>
      </trkpt>
      <trkpt lat="43.1739" lon="1.17568">
        <ele>322</ele>
        <time>2019-02-24T08:54:10.000Z</time>
      </trkpt>
      <trkpt lat="43.17389" lon="1.17566">
        <ele>322</ele>
        <time>2019-02-24T08:54:11.000Z</time>
      </trkpt>
      <trkpt lat="43.17388" lon="1.17563">
        <ele>322</ele>
        <time>2019-02-24T08:54:12.000Z</time>
      </trkpt>
      <trkpt lat="43.17387" lon="1.1756">
        <ele>322</ele>
        <time>2019-02-24T08:54:13.000Z</time>
      </trkpt>
      <trkpt lat="43.17386" lon="1.17558">
        <ele>322</ele>
        <time>2019-02-24T08:54:14.000Z</time>
      </trkpt>
      <trkpt lat="43.17384" lon="1.17555">
        <ele>322</ele>
        <time>2019-02-24T08:54:15.000Z</time>
      </trkpt>
      <trkpt lat="43.17383" lon="1.17552">
        <ele>322</ele>
        <time>2019-02-24T08:54:16.000Z</time>
      </trkpt>
      <trkpt lat="43.17382" lon="1.17549">
        <ele>322.18840203317</ele>
        <time>2019-02-24T08:54:17.000Z</time>
      </trkpt>
      <trkpt lat="43.17381" lon="1.17547">
        <ele>323</ele>
        <time>2019-02-24T08:54:18.000Z</time>
      </trkpt>
      <trkpt lat="43.1738" lon="1.17544">
        <ele>323</ele>
        <time>2019-02-24T08:54:19.000Z</time>
      </trkpt>
      <trkpt lat="43.17379" lon="1.17541">
        <ele>323</ele>
        <time>2019-02-24T08:54:20.000Z</time>
      </trkpt>
      <trkpt lat="43.17377" lon="1.17539">
        <ele>323</ele>
        <time>2019-02-24T08:54:21.000Z</time>
      </trkpt>
      <trkpt lat="43.17376" lon="1.17536">
        <ele>323</ele>
        <time>2019-02-24T08:54:22.000Z</time>
      </trkpt>
      <trkpt lat="43.17375" lon="1.17534">
        <ele>323</ele>
        <time>2019-02-24T08:54:23.000Z</time>
      </trkpt>
      <trkpt lat="43.17374" lon="1.17531">
        <ele>323</ele>
        <time>2019-02-24T08:54:24.000Z</time>
      </trkpt>
      <trkpt lat="43.17373" lon="1.17529">
        <ele>323</ele>
        <time>2019-02-24T08:54:25.000Z</time>
      </trkpt>
      <trkpt lat="43.17372" lon="1.17526">
        <ele>323</ele>
        <time>2019-02-24T08:54:26.000Z</time>
      </trkpt>
      <trkpt lat="43.17371" lon="1.17524">
        <ele>323</ele>
        <time>2019-02-24T08:54:27.000Z</time>
      </trkpt>
      <trkpt lat="43.1737" lon="1.17521">
        <ele>323.43564494462</ele>
        <time>2019-02-24T08:54:28.000Z</time>
      </trkpt>
      <trkpt lat="43.17369" lon="1.17518">
        <ele>324</ele>
        <time>2019-02-24T08:54:29.000Z</time>
      </trkpt>
      <trkpt lat="43.17368" lon="1.17516">
        <ele>324</ele>
        <time>2019-02-24T08:54:30.000Z</time>
      </trkpt>
      <trkpt lat="43.17367" lon="1.17513">
        <ele>324</ele>
        <time>2019-02-24T08:54:31.000Z</time>
      </trkpt>
      <trkpt lat="43.17366" lon="1.1751">
        <ele>324</ele>
        <time>2019-02-24T08:54:32.000Z</time>
      </trkpt>
      <trkpt lat="43.17365" lon="1.17508">
        <ele>324</ele>
        <time>2019-02-24T08:54:33.000Z</time>
      </trkpt>
      <trkpt lat="43.17364" lon="1.17505">
        <ele>324</ele>
        <time>2019-02-24T08:54:34.000Z</time>
      </trkpt>
      <trkpt lat="43.17363" lon="1.17502">
        <ele>324.32116863339</ele>
        <time>2019-02-24T08:54:35.000Z</time>
      </trkpt>
      <trkpt lat="43.17362" lon="1.175">
        <ele>325</ele>
        <time>2019-02-24T08:54:36.000Z</time>
      </trkpt>
      <trkpt lat="43.17361" lon="1.17497">
        <ele>325</ele>
        <time>2019-02-24T08:54:37.000Z</time>
      </trkpt>
      <trkpt lat="43.1736" lon="1.17494">
        <ele>325</ele>
        <time>2019-02-24T08:54:38.000Z</time>
      </trkpt>
      <trkpt lat="43.17359" lon="1.17492">
        <ele>325</ele>
        <time>2019-02-24T08:54:39.000Z</time>
      </trkpt>
      <trkpt lat="43.17357" lon="1.17489">
        <ele>325</ele>
        <time>2019-02-24T08:54:40.000Z</time>
      </trkpt>
      <trkpt lat="43.17356" lon="1.17486">
        <ele>325</ele>
        <time>2019-02-24T08:54:41.000Z</time>
      </trkpt>
      <trkpt lat="43.17355" lon="1.17484">
        <ele>325</ele>
        <time>2019-02-24T08:54:42.000Z</time>
      </trkpt>
      <trkpt lat="43.17354" lon="1.17481">
        <ele>325</ele>
        <time>2019-02-24T08:54:43.000Z</time>
      </trkpt>
      <trkpt lat="43.17353" lon="1.17479">
        <ele>325</ele>
        <time>2019-02-24T08:54:44.000Z</time>
      </trkpt>
      <trkpt lat="43.17352" lon="1.17476">
        <ele>325</ele>
        <time>2019-02-24T08:54:45.000Z</time>
      </trkpt>
      <trkpt lat="43.17351" lon="1.17473">
        <ele>325</ele>
        <time>2019-02-24T08:54:46.000Z</time>
      </trkpt>
      <trkpt lat="43.1735" lon="1.1747">
        <ele>325</ele>
        <time>2019-02-24T08:54:47.000Z</time>
      </trkpt>
      <trkpt lat="43.1735" lon="1.17467">
        <ele>325</ele>
        <time>2019-02-24T08:54:48.000Z</time>
      </trkpt>
      <trkpt lat="43.17351" lon="1.17463">
        <ele>325</ele>
        <time>2019-02-24T08:54:49.000Z</time>
      </trkpt>
      <trkpt lat="43.17352" lon="1.1746">
        <ele>325</ele>
        <time>2019-02-24T08:54:50.000Z</time>
      </trkpt>
      <trkpt lat="43.17353" lon="1.17457">
        <ele>325</ele>
        <time>2019-02-24T08:54:51.000Z</time>
      </trkpt>
      <trkpt lat="43.17356" lon="1.17453">
        <ele>325</ele>
        <time>2019-02-24T08:54:52.000Z</time>
      </trkpt>
      <trkpt lat="43.17357" lon="1.1745">
        <ele>325</ele>
        <time>2019-02-24T08:54:53.000Z</time>
      </trkpt>
      <trkpt lat="43.17359" lon="1.17447">
        <ele>325</ele>
        <time>2019-02-24T08:54:54.000Z</time>
      </trkpt>
      <trkpt lat="43.1736" lon="1.17444">
        <ele>325</ele>
        <time>2019-02-24T08:54:55.000Z</time>
      </trkpt>
      <trkpt lat="43.17362" lon="1.17441">
        <ele>325</ele>
        <time>2019-02-24T08:54:56.000Z</time>
      </trkpt>
      <trkpt lat="43.17364" lon="1.17439">
        <ele>325</ele>
        <time>2019-02-24T08:54:57.000Z</time>
      </trkpt>
      <trkpt lat="43.17366" lon="1.17437">
        <ele>325</ele>
        <time>2019-02-24T08:54:58.000Z</time>
      </trkpt>
      <trkpt lat="43.17373" lon="1.17426">
        <ele>324</ele>
        <time>2019-02-24T08:55:02.000Z</time>
      </trkpt>
      <trkpt lat="43.17381" lon="1.17416">
        <ele>324</ele>
        <time>2019-02-24T08:55:06.000Z</time>
      </trkpt>
      <trkpt lat="43.17384" lon="1.17414">
        <ele>324</ele>
        <time>2019-02-24T08:55:07.000Z</time>
      </trkpt>
      <trkpt lat="43.17387" lon="1.17412">
        <ele>324</ele>
        <time>2019-02-24T08:55:08.000Z</time>
      </trkpt>
      <trkpt lat="43.17389" lon="1.17411">
        <ele>324</ele>
        <time>2019-02-24T08:55:09.000Z</time>
      </trkpt>
      <trkpt lat="43.17391" lon="1.17409">
        <ele>324</ele>
        <time>2019-02-24T08:55:10.000Z</time>
      </trkpt>
      <trkpt lat="43.17392" lon="1.17406">
        <ele>324</ele>
        <time>2019-02-24T08:55:11.000Z</time>
      </trkpt>
      <trkpt lat="43.17394" lon="1.17405">
        <ele>324.44</ele>
        <time>2019-02-24T08:55:12.000Z</time>
      </trkpt>
      <trkpt lat="43.17396" lon="1.17403">
        <ele>325</ele>
        <time>2019-02-24T08:55:13.000Z</time>
      </trkpt>
      <trkpt lat="43.17398" lon="1.174">
        <ele>325</ele>
        <time>2019-02-24T08:55:14.000Z</time>
      </trkpt>
      <trkpt lat="43.174" lon="1.17399">
        <ele>325</ele>
        <time>2019-02-24T08:55:15.000Z</time>
      </trkpt>
      <trkpt lat="43.17402" lon="1.17397">
        <ele>325</ele>
        <time>2019-02-24T08:55:16.000Z</time>
      </trkpt>
      <trkpt lat="43.17404" lon="1.17394">
        <ele>325</ele>
        <time>2019-02-24T08:55:17.000Z</time>
      </trkpt>
      <trkpt lat="43.17406" lon="1.17392">
        <ele>325</ele>
        <time>2019-02-24T08:55:18.000Z</time>
      </trkpt>
      <trkpt lat="43.17408" lon="1.1739">
        <ele>325</ele>
        <time>2019-02-24T08:55:19.000Z</time>
      </trkpt>
      <trkpt lat="43.17417" lon="1.17382">
        <ele>325</ele>
        <time>2019-02-24T08:55:23.000Z</time>
      </trkpt>
      <trkpt lat="43.17425" lon="1.17373">
        <ele>325</ele>
        <time>2019-02-24T08:55:27.000Z</time>
      </trkpt>
      <trkpt lat="43.17432" lon="1.17365">
        <ele>325</ele>
        <time>2019-02-24T08:55:31.000Z</time>
      </trkpt>
      <trkpt lat="43.17434" lon="1.17362">
        <ele>325</ele>
        <time>2019-02-24T08:55:32.000Z</time>
      </trkpt>
      <trkpt lat="43.17435" lon="1.1736">
        <ele>325</ele>
        <time>2019-02-24T08:55:33.000Z</time>
      </trkpt>
      <trkpt lat="43.17437" lon="1.17357">
        <ele>325</ele>
        <time>2019-02-24T08:55:34.000Z</time>
      </trkpt>
      <trkpt lat="43.17439" lon="1.17355">
        <ele>325</ele>
        <time>2019-02-24T08:55:35.000Z</time>
      </trkpt>
      <trkpt lat="43.17441" lon="1.17353">
        <ele>325.17647058824</ele>
        <time>2019-02-24T08:55:36.000Z</time>
      </trkpt>
      <trkpt lat="43.17443" lon="1.17351">
        <ele>326</ele>
        <time>2019-02-24T08:55:37.000Z</time>
      </trkpt>
      <trkpt lat="43.17445" lon="1.17349">
        <ele>326</ele>
        <time>2019-02-24T08:55:38.000Z</time>
      </trkpt>
      <trkpt lat="43.17447" lon="1.17346">
        <ele>326</ele>
        <time>2019-02-24T08:55:39.000Z</time>
      </trkpt>
      <trkpt lat="43.17448" lon="1.17344">
        <ele>326</ele>
        <time>2019-02-24T08:55:40.000Z</time>
      </trkpt>
      <trkpt lat="43.1745" lon="1.17341">
        <ele>326</ele>
        <time>2019-02-24T08:55:41.000Z</time>
      </trkpt>
      <trkpt lat="43.17452" lon="1.17339">
        <ele>326</ele>
        <time>2019-02-24T08:55:42.000Z</time>
      </trkpt>
      <trkpt lat="43.17454" lon="1.17337">
        <ele>326</ele>
        <time>2019-02-24T08:55:43.000Z</time>
      </trkpt>
      <trkpt lat="43.17455" lon="1.17334">
        <ele>326</ele>
        <time>2019-02-24T08:55:44.000Z</time>
      </trkpt>
      <trkpt lat="43.17457" lon="1.17332">
        <ele>326</ele>
        <time>2019-02-24T08:55:45.000Z</time>
      </trkpt>
      <trkpt lat="43.17459" lon="1.1733">
        <ele>326.41666666667</ele>
        <time>2019-02-24T08:55:46.000Z</time>
      </trkpt>
      <trkpt lat="43.17461" lon="1.17327">
        <ele>327</ele>
        <time>2019-02-24T08:55:47.000Z</time>
      </trkpt>
      <trkpt lat="43.17463" lon="1.17325">
        <ele>327</ele>
        <time>2019-02-24T08:55:48.000Z</time>
      </trkpt>
      <trkpt lat="43.17465" lon="1.17323">
        <ele>327</ele>
        <time>2019-02-24T08:55:49.000Z</time>
      </trkpt>
      <trkpt lat="43.17466" lon="1.17321">
        <ele>327</ele>
        <time>2019-02-24T08:55:50.000Z</time>
      </trkpt>
      <trkpt lat="43.17468" lon="1.17319">
        <ele>327.33846320474</ele>
        <time>2019-02-24T08:55:51.000Z</time>
      </trkpt>
      <trkpt lat="43.17469" lon="1.17317">
        <ele>328</ele>
        <time>2019-02-24T08:55:52.000Z</time>
      </trkpt>
      <trkpt lat="43.17471" lon="1.17315">
        <ele>328</ele>
        <time>2019-02-24T08:55:53.000Z</time>
      </trkpt>
      <trkpt lat="43.17476" lon="1.17304">
        <ele>327.17647058824</ele>
        <time>2019-02-24T08:55:57.000Z</time>
      </trkpt>
      <trkpt lat="43.17478" lon="1.17301">
        <ele>328</ele>
        <time>2019-02-24T08:55:58.000Z</time>
      </trkpt>
      <trkpt lat="43.17479" lon="1.17298">
        <ele>328</ele>
        <time>2019-02-24T08:55:59.000Z</time>
      </trkpt>
      <trkpt lat="43.17481" lon="1.17296">
        <ele>328.44</ele>
        <time>2019-02-24T08:56:00.000Z</time>
      </trkpt>
      <trkpt lat="43.17482" lon="1.17293">
        <ele>329</ele>
        <time>2019-02-24T08:56:01.000Z</time>
      </trkpt>
      <trkpt lat="43.17488" lon="1.17281">
        <ele>329</ele>
        <time>2019-02-24T08:56:05.000Z</time>
      </trkpt>
      <trkpt lat="43.17493" lon="1.17269">
        <ele>329</ele>
        <time>2019-02-24T08:56:09.000Z</time>
      </trkpt>
      <trkpt lat="43.17496" lon="1.17257">
        <ele>330</ele>
        <time>2019-02-24T08:56:13.000Z</time>
      </trkpt>
      <trkpt lat="43.17501" lon="1.17245">
        <ele>330</ele>
        <time>2019-02-24T08:56:17.000Z</time>
      </trkpt>
      <trkpt lat="43.17502" lon="1.17242">
        <ele>330</ele>
        <time>2019-02-24T08:56:18.000Z</time>
      </trkpt>
      <trkpt lat="43.17503" lon="1.17239">
        <ele>330.36363636364</ele>
        <time>2019-02-24T08:56:19.000Z</time>
      </trkpt>
      <trkpt lat="43.17504" lon="1.17236">
        <ele>331</ele>
        <time>2019-02-24T08:56:20.000Z</time>
      </trkpt>
      <trkpt lat="43.17505" lon="1.17233">
        <ele>331</ele>
        <time>2019-02-24T08:56:21.000Z</time>
      </trkpt>
      <trkpt lat="43.17506" lon="1.1723">
        <ele>331</ele>
        <time>2019-02-24T08:56:22.000Z</time>
      </trkpt>
      <trkpt lat="43.17507" lon="1.17228">
        <ele>331</ele>
        <time>2019-02-24T08:56:23.000Z</time>
      </trkpt>
      <trkpt lat="43.17509" lon="1.17225">
        <ele>331</ele>
        <time>2019-02-24T08:56:24.000Z</time>
      </trkpt>
      <trkpt lat="43.1751" lon="1.17221">
        <ele>331</ele>
        <time>2019-02-24T08:56:25.000Z</time>
      </trkpt>
      <trkpt lat="43.17512" lon="1.17218">
        <ele>331</ele>
        <time>2019-02-24T08:56:26.000Z</time>
      </trkpt>
      <trkpt lat="43.17513" lon="1.17215">
        <ele>331</ele>
        <time>2019-02-24T08:56:27.000Z</time>
      </trkpt>
      <trkpt lat="43.17514" lon="1.17212">
        <ele>331</ele>
        <time>2019-02-24T08:56:28.000Z</time>
      </trkpt>
      <trkpt lat="43.17516" lon="1.17208">
        <ele>331</ele>
        <time>2019-02-24T08:56:29.000Z</time>
      </trkpt>
      <trkpt lat="43.1752" lon="1.17196">
        <ele>331.38938163365</ele>
        <time>2019-02-24T08:56:33.000Z</time>
      </trkpt>
      <trkpt lat="43.17522" lon="1.1719">
        <ele>332</ele>
        <time>2019-02-24T08:56:35.000Z</time>
      </trkpt>
      <trkpt lat="43.17523" lon="1.17187">
        <ele>332</ele>
        <time>2019-02-24T08:56:36.000Z</time>
      </trkpt>
      <trkpt lat="43.17525" lon="1.17185">
        <ele>332</ele>
        <time>2019-02-24T08:56:37.000Z</time>
      </trkpt>
      <trkpt lat="43.17526" lon="1.17181">
        <ele>332.44</ele>
        <time>2019-02-24T08:56:38.000Z</time>
      </trkpt>
      <trkpt lat="43.17528" lon="1.17178">
        <ele>333</ele>
        <time>2019-02-24T08:56:39.000Z</time>
      </trkpt>
      <trkpt lat="43.17529" lon="1.17175">
        <ele>333</ele>
        <time>2019-02-24T08:56:40.000Z</time>
      </trkpt>
      <trkpt lat="43.1753" lon="1.17172">
        <ele>333</ele>
        <time>2019-02-24T08:56:41.000Z</time>
      </trkpt>
      <trkpt lat="43.17531" lon="1.17169">
        <ele>333</ele>
        <time>2019-02-24T08:56:42.000Z</time>
      </trkpt>
      <trkpt lat="43.17532" lon="1.17166">
        <ele>333.44</ele>
        <time>2019-02-24T08:56:43.000Z</time>
      </trkpt>
      <trkpt lat="43.17534" lon="1.17164">
        <ele>334</ele>
        <time>2019-02-24T08:56:44.000Z</time>
      </trkpt>
      <trkpt lat="43.17536" lon="1.17162">
        <ele>334</ele>
        <time>2019-02-24T08:56:45.000Z</time>
      </trkpt>
      <trkpt lat="43.17538" lon="1.1716">
        <ele>334.40740740741</ele>
        <time>2019-02-24T08:56:46.000Z</time>
      </trkpt>
      <trkpt lat="43.1754" lon="1.17159">
        <ele>335</ele>
        <time>2019-02-24T08:56:47.000Z</time>
      </trkpt>
      <trkpt lat="43.17542" lon="1.17159">
        <ele>335</ele>
        <time>2019-02-24T08:56:48.000Z</time>
      </trkpt>
      <trkpt lat="43.17545" lon="1.17159">
        <ele>335</ele>
        <time>2019-02-24T08:56:49.000Z</time>
      </trkpt>
      <trkpt lat="43.17547" lon="1.1716">
        <ele>335</ele>
        <time>2019-02-24T08:56:50.000Z</time>
      </trkpt>
      <trkpt lat="43.17549" lon="1.17163">
        <ele>335</ele>
        <time>2019-02-24T08:56:51.000Z</time>
      </trkpt>
      <trkpt lat="43.17551" lon="1.17165">
        <ele>334.61061836635</ele>
        <time>2019-02-24T08:56:52.000Z</time>
      </trkpt>
      <trkpt lat="43.17554" lon="1.17168">
        <ele>334</ele>
        <time>2019-02-24T08:56:53.000Z</time>
      </trkpt>
      <trkpt lat="43.17556" lon="1.1717">
        <ele>334</ele>
        <time>2019-02-24T08:56:54.000Z</time>
      </trkpt>
      <trkpt lat="43.17559" lon="1.17173">
        <ele>333.80000731435</ele>
        <time>2019-02-24T08:56:55.000Z</time>
      </trkpt>
      <trkpt lat="43.17561" lon="1.17176">
        <ele>333</ele>
        <time>2019-02-24T08:56:56.000Z</time>
      </trkpt>
      <trkpt lat="43.17564" lon="1.1718">
        <ele>333</ele>
        <time>2019-02-24T08:56:57.000Z</time>
      </trkpt>
      <trkpt lat="43.17567" lon="1.17183">
        <ele>333</ele>
        <time>2019-02-24T08:56:58.000Z</time>
      </trkpt>
      <trkpt lat="43.17569" lon="1.17186">
        <ele>332.57281686115</ele>
        <time>2019-02-24T08:56:59.000Z</time>
      </trkpt>
      <trkpt lat="43.17572" lon="1.17189">
        <ele>332</ele>
        <time>2019-02-24T08:57:00.000Z</time>
      </trkpt>
      <trkpt lat="43.17574" lon="1.17192">
        <ele>332</ele>
        <time>2019-02-24T08:57:01.000Z</time>
      </trkpt>
      <trkpt lat="43.17578" lon="1.17198">
        <ele>331.62221779756</ele>
        <time>2019-02-24T08:57:03.000Z</time>
      </trkpt>
      <trkpt lat="43.1758" lon="1.17201">
        <ele>331</ele>
        <time>2019-02-24T08:57:04.000Z</time>
      </trkpt>
      <trkpt lat="43.17582" lon="1.17204">
        <ele>331</ele>
        <time>2019-02-24T08:57:05.000Z</time>
      </trkpt>
      <trkpt lat="43.17584" lon="1.17207">
        <ele>331</ele>
        <time>2019-02-24T08:57:06.000Z</time>
      </trkpt>
      <trkpt lat="43.17586" lon="1.1721">
        <ele>331</ele>
        <time>2019-02-24T08:57:07.000Z</time>
      </trkpt>
      <trkpt lat="43.17594" lon="1.17221">
        <ele>330.56</ele>
        <time>2019-02-24T08:57:11.000Z</time>
      </trkpt>
      <trkpt lat="43.17602" lon="1.17233">
        <ele>330</ele>
        <time>2019-02-24T08:57:15.000Z</time>
      </trkpt>
      <trkpt lat="43.17608" lon="1.1724">
        <ele>329</ele>
        <time>2019-02-24T08:57:17.000Z</time>
      </trkpt>
      <trkpt lat="43.17611" lon="1.17243">
        <ele>329</ele>
        <time>2019-02-24T08:57:18.000Z</time>
      </trkpt>
      <trkpt lat="43.17614" lon="1.17246">
        <ele>328.6153824514</ele>
        <time>2019-02-24T08:57:19.000Z</time>
      </trkpt>
      <trkpt lat="43.17616" lon="1.17249">
        <ele>328</ele>
        <time>2019-02-24T08:57:20.000Z</time>
      </trkpt>
      <trkpt lat="43.1762" lon="1.17255">
        <ele>327.57732149219</ele>
        <time>2019-02-24T08:57:22.000Z</time>
      </trkpt>
      <trkpt lat="43.17622" lon="1.17257">
        <ele>327</ele>
        <time>2019-02-24T08:57:23.000Z</time>
      </trkpt>
      <trkpt lat="43.17631" lon="1.17269">
        <ele>327</ele>
        <time>2019-02-24T08:57:27.000Z</time>
      </trkpt>
      <trkpt lat="43.17637" lon="1.17278">
        <ele>326</ele>
        <time>2019-02-24T08:57:30.000Z</time>
      </trkpt>
      <trkpt lat="43.17645" lon="1.17289">
        <ele>326</ele>
        <time>2019-02-24T08:57:33.000Z</time>
      </trkpt>
      <trkpt lat="43.17651" lon="1.17301">
        <ele>325</ele>
        <time>2019-02-24T08:57:36.000Z</time>
      </trkpt>
      <trkpt lat="43.17657" lon="1.17311">
        <ele>325</ele>
        <time>2019-02-24T08:57:39.000Z</time>
      </trkpt>
      <trkpt lat="43.17663" lon="1.17322">
        <ele>324</ele>
        <time>2019-02-24T08:57:42.000Z</time>
      </trkpt>
      <trkpt lat="43.17669" lon="1.17332">
        <ele>323</ele>
        <time>2019-02-24T08:57:45.000Z</time>
      </trkpt>
      <trkpt lat="43.17673" lon="1.17339">
        <ele>324</ele>
        <time>2019-02-24T08:57:47.000Z</time>
      </trkpt>
      <trkpt lat="43.17676" lon="1.17343">
        <ele>323.58947169862</ele>
        <time>2019-02-24T08:57:48.000Z</time>
      </trkpt>
      <trkpt lat="43.17677" lon="1.17347">
        <ele>322.60714285714</ele>
        <time>2019-02-24T08:57:49.000Z</time>
      </trkpt>
      <trkpt lat="43.17679" lon="1.1735">
        <ele>322.36363636364</ele>
        <time>2019-02-24T08:57:50.000Z</time>
      </trkpt>
      <trkpt lat="43.17681" lon="1.17354">
        <ele>323</ele>
        <time>2019-02-24T08:57:51.000Z</time>
      </trkpt>
      <trkpt lat="43.17683" lon="1.17357">
        <ele>322.56435505538</ele>
        <time>2019-02-24T08:57:52.000Z</time>
      </trkpt>
      <trkpt lat="43.17685" lon="1.1736">
        <ele>322</ele>
        <time>2019-02-24T08:57:53.000Z</time>
      </trkpt>
      <trkpt lat="43.17687" lon="1.17363">
        <ele>322</ele>
        <time>2019-02-24T08:57:54.000Z</time>
      </trkpt>
      <trkpt lat="43.17689" lon="1.17366">
        <ele>322</ele>
        <time>2019-02-24T08:57:55.000Z</time>
      </trkpt>
      <trkpt lat="43.1769" lon="1.17369">
        <ele>322</ele>
        <time>2019-02-24T08:57:56.000Z</time>
      </trkpt>
      <trkpt lat="43.17692" lon="1.17373">
        <ele>322</ele>
        <time>2019-02-24T08:57:57.000Z</time>
      </trkpt>
      <trkpt lat="43.17694" lon="1.17376">
        <ele>321.79999268578</ele>
        <time>2019-02-24T08:57:58.000Z</time>
      </trkpt>
      <trkpt lat="43.17696" lon="1.1738">
        <ele>321</ele>
        <time>2019-02-24T08:57:59.000Z</time>
      </trkpt>
      <trkpt lat="43.17698" lon="1.17383">
        <ele>321</ele>
        <time>2019-02-24T08:58:00.000Z</time>
      </trkpt>
      <trkpt lat="43.17699" lon="1.17385">
        <ele>321</ele>
        <time>2019-02-24T08:58:01.000Z</time>
      </trkpt>
      <trkpt lat="43.17701" lon="1.17388">
        <ele>321</ele>
        <time>2019-02-24T08:58:02.000Z</time>
      </trkpt>
      <trkpt lat="43.17703" lon="1.17392">
        <ele>321</ele>
        <time>2019-02-24T08:58:03.000Z</time>
      </trkpt>
      <trkpt lat="43.17705" lon="1.17395">
        <ele>320.68799983616</ele>
        <time>2019-02-24T08:58:04.000Z</time>
      </trkpt>
      <trkpt lat="43.17707" lon="1.17398">
        <ele>320</ele>
        <time>2019-02-24T08:58:05.000Z</time>
      </trkpt>
      <trkpt lat="43.17709" lon="1.17401">
        <ele>320</ele>
        <time>2019-02-24T08:58:06.000Z</time>
      </trkpt>
      <trkpt lat="43.17711" lon="1.17404">
        <ele>320</ele>
        <time>2019-02-24T08:58:07.000Z</time>
      </trkpt>
      <trkpt lat="43.17713" lon="1.17407">
        <ele>320</ele>
        <time>2019-02-24T08:58:08.000Z</time>
      </trkpt>
      <trkpt lat="43.17714" lon="1.1741">
        <ele>320</ele>
        <time>2019-02-24T08:58:09.000Z</time>
      </trkpt>
      <trkpt lat="43.17716" lon="1.17413">
        <ele>320</ele>
        <time>2019-02-24T08:58:10.000Z</time>
      </trkpt>
      <trkpt lat="43.17718" lon="1.17415">
        <ele>320</ele>
        <time>2019-02-24T08:58:11.000Z</time>
      </trkpt>
      <trkpt lat="43.17721" lon="1.17418">
        <ele>320</ele>
        <time>2019-02-24T08:58:12.000Z</time>
      </trkpt>
      <trkpt lat="43.17723" lon="1.17421">
        <ele>319.60000232726</ele>
        <time>2019-02-24T08:58:13.000Z</time>
      </trkpt>
      <trkpt lat="43.17725" lon="1.17424">
        <ele>319</ele>
        <time>2019-02-24T08:58:14.000Z</time>
      </trkpt>
      <trkpt lat="43.17727" lon="1.17427">
        <ele>319</ele>
        <time>2019-02-24T08:58:15.000Z</time>
      </trkpt>
      <trkpt lat="43.17729" lon="1.17429">
        <ele>319</ele>
        <time>2019-02-24T08:58:16.000Z</time>
      </trkpt>
      <trkpt lat="43.17731" lon="1.17432">
        <ele>319</ele>
        <time>2019-02-24T08:58:17.000Z</time>
      </trkpt>
      <trkpt lat="43.17733" lon="1.17435">
        <ele>319</ele>
        <time>2019-02-24T08:58:18.000Z</time>
      </trkpt>
      <trkpt lat="43.17736" lon="1.17438">
        <ele>319</ele>
        <time>2019-02-24T08:58:19.000Z</time>
      </trkpt>
      <trkpt lat="43.17738" lon="1.17441">
        <ele>319</ele>
        <time>2019-02-24T08:58:20.000Z</time>
      </trkpt>
      <trkpt lat="43.1774" lon="1.17444">
        <ele>318.60360474637</ele>
        <time>2019-02-24T08:58:21.000Z</time>
      </trkpt>
      <trkpt lat="43.17743" lon="1.17447">
        <ele>318.3707842545</ele>
        <time>2019-02-24T08:58:22.000Z</time>
      </trkpt>
      <trkpt lat="43.17745" lon="1.17451">
        <ele>319</ele>
        <time>2019-02-24T08:58:23.000Z</time>
      </trkpt>
      <trkpt lat="43.17747" lon="1.17454">
        <ele>318.79885330314</ele>
        <time>2019-02-24T08:58:24.000Z</time>
      </trkpt>
      <trkpt lat="43.17749" lon="1.17457">
        <ele>318</ele>
        <time>2019-02-24T08:58:25.000Z</time>
      </trkpt>
      <trkpt lat="43.17751" lon="1.17461">
        <ele>318</ele>
        <time>2019-02-24T08:58:26.000Z</time>
      </trkpt>
      <trkpt lat="43.17757" lon="1.1747">
        <ele>318</ele>
        <time>2019-02-24T08:58:29.000Z</time>
      </trkpt>
      <trkpt lat="43.17758" lon="1.17473">
        <ele>318</ele>
        <time>2019-02-24T08:58:30.000Z</time>
      </trkpt>
      <trkpt lat="43.1776" lon="1.17476">
        <ele>317.84847662083</ele>
        <time>2019-02-24T08:58:31.000Z</time>
      </trkpt>
      <trkpt lat="43.17762" lon="1.17479">
        <ele>317.44</ele>
        <time>2019-02-24T08:58:32.000Z</time>
      </trkpt>
      <trkpt lat="43.17763" lon="1.17482">
        <ele>318</ele>
        <time>2019-02-24T08:58:33.000Z</time>
      </trkpt>
      <trkpt lat="43.17766" lon="1.17485">
        <ele>318</ele>
        <time>2019-02-24T08:58:34.000Z</time>
      </trkpt>
      <trkpt lat="43.17768" lon="1.17487">
        <ele>318</ele>
        <time>2019-02-24T08:58:35.000Z</time>
      </trkpt>
      <trkpt lat="43.1777" lon="1.17491">
        <ele>317.5951085478</ele>
        <time>2019-02-24T08:58:36.000Z</time>
      </trkpt>
      <trkpt lat="43.17772" lon="1.17494">
        <ele>317</ele>
        <time>2019-02-24T08:58:37.000Z</time>
      </trkpt>
      <trkpt lat="43.17774" lon="1.17497">
        <ele>317</ele>
        <time>2019-02-24T08:58:38.000Z</time>
      </trkpt>
      <trkpt lat="43.17776" lon="1.175">
        <ele>317</ele>
        <time>2019-02-24T08:58:39.000Z</time>
      </trkpt>
      <trkpt lat="43.17778" lon="1.17503">
        <ele>317</ele>
        <time>2019-02-24T08:58:40.000Z</time>
      </trkpt>
      <trkpt lat="43.1778" lon="1.17506">
        <ele>317</ele>
        <time>2019-02-24T08:58:41.000Z</time>
      </trkpt>
      <trkpt lat="43.17782" lon="1.17509">
        <ele>316.68571428571</ele>
        <time>2019-02-24T08:58:42.000Z</time>
      </trkpt>
      <trkpt lat="43.17783" lon="1.17511">
        <ele>316</ele>
        <time>2019-02-24T08:58:43.000Z</time>
      </trkpt>
      <trkpt lat="43.17786" lon="1.17514">
        <ele>316</ele>
        <time>2019-02-24T08:58:44.000Z</time>
      </trkpt>
      <trkpt lat="43.17788" lon="1.17517">
        <ele>315.56</ele>
        <time>2019-02-24T08:58:45.000Z</time>
      </trkpt>
      <trkpt lat="43.17789" lon="1.1752">
        <ele>315</ele>
        <time>2019-02-24T08:58:46.000Z</time>
      </trkpt>
      <trkpt lat="43.17791" lon="1.17523">
        <ele>315</ele>
        <time>2019-02-24T08:58:47.000Z</time>
      </trkpt>
      <trkpt lat="43.17793" lon="1.17526">
        <ele>315</ele>
        <time>2019-02-24T08:58:48.000Z</time>
      </trkpt>
      <trkpt lat="43.17796" lon="1.17529">
        <ele>315</ele>
        <time>2019-02-24T08:58:49.000Z</time>
      </trkpt>
      <trkpt lat="43.17798" lon="1.17532">
        <ele>315</ele>
        <time>2019-02-24T08:58:50.000Z</time>
      </trkpt>
      <trkpt lat="43.178" lon="1.17535">
        <ele>314.57142483967</ele>
        <time>2019-02-24T08:58:51.000Z</time>
      </trkpt>
      <trkpt lat="43.17802" lon="1.17537">
        <ele>314.40740740741</ele>
        <time>2019-02-24T08:58:52.000Z</time>
      </trkpt>
      <trkpt lat="43.17805" lon="1.1754">
        <ele>315</ele>
        <time>2019-02-24T08:58:53.000Z</time>
      </trkpt>
      <trkpt lat="43.17807" lon="1.17542">
        <ele>314.56</ele>
        <time>2019-02-24T08:58:54.000Z</time>
      </trkpt>
      <trkpt lat="43.17809" lon="1.17545">
        <ele>314</ele>
        <time>2019-02-24T08:58:55.000Z</time>
      </trkpt>
      <trkpt lat="43.17811" lon="1.17548">
        <ele>314</ele>
        <time>2019-02-24T08:58:56.000Z</time>
      </trkpt>
      <trkpt lat="43.17812" lon="1.1755">
        <ele>313.59259259259</ele>
        <time>2019-02-24T08:58:57.000Z</time>
      </trkpt>
      <trkpt lat="43.17814" lon="1.17553">
        <ele>313.39130434783</ele>
        <time>2019-02-24T08:58:58.000Z</time>
      </trkpt>
      <trkpt lat="43.17817" lon="1.17555">
        <ele>314</ele>
        <time>2019-02-24T08:58:59.000Z</time>
      </trkpt>
      <trkpt lat="43.17819" lon="1.17558">
        <ele>313.63333333333</ele>
        <time>2019-02-24T08:59:00.000Z</time>
      </trkpt>
      <trkpt lat="43.17822" lon="1.17561">
        <ele>313</ele>
        <time>2019-02-24T08:59:01.000Z</time>
      </trkpt>
      <trkpt lat="43.17824" lon="1.17563">
        <ele>313</ele>
        <time>2019-02-24T08:59:02.000Z</time>
      </trkpt>
      <trkpt lat="43.17826" lon="1.17565">
        <ele>313</ele>
        <time>2019-02-24T08:59:03.000Z</time>
      </trkpt>
      <trkpt lat="43.17829" lon="1.17568">
        <ele>313</ele>
        <time>2019-02-24T08:59:04.000Z</time>
      </trkpt>
      <trkpt lat="43.17832" lon="1.1757">
        <ele>313</ele>
        <time>2019-02-24T08:59:05.000Z</time>
      </trkpt>
      <trkpt lat="43.17834" lon="1.17572">
        <ele>313</ele>
        <time>2019-02-24T08:59:06.000Z</time>
      </trkpt>
      <trkpt lat="43.17836" lon="1.17575">
        <ele>313</ele>
        <time>2019-02-24T08:59:07.000Z</time>
      </trkpt>
      <trkpt lat="43.17838" lon="1.17577">
        <ele>313</ele>
        <time>2019-02-24T08:59:08.000Z</time>
      </trkpt>
      <trkpt lat="43.1784" lon="1.1758">
        <ele>313</ele>
        <time>2019-02-24T08:59:09.000Z</time>
      </trkpt>
      <trkpt lat="43.17841" lon="1.17582">
        <ele>313</ele>
        <time>2019-02-24T08:59:10.000Z</time>
      </trkpt>
      <trkpt lat="43.17843" lon="1.17585">
        <ele>313</ele>
        <time>2019-02-24T08:59:11.000Z</time>
      </trkpt>
      <trkpt lat="43.17846" lon="1.17588">
        <ele>313</ele>
        <time>2019-02-24T08:59:12.000Z</time>
      </trkpt>
      <trkpt lat="43.17848" lon="1.1759">
        <ele>313</ele>
        <time>2019-02-24T08:59:13.000Z</time>
      </trkpt>
      <trkpt lat="43.1785" lon="1.17593">
        <ele>313</ele>
        <time>2019-02-24T08:59:14.000Z</time>
      </trkpt>
      <trkpt lat="43.17852" lon="1.17594">
        <ele>312.58878627653</ele>
        <time>2019-02-24T08:59:15.000Z</time>
      </trkpt>
      <trkpt lat="43.17855" lon="1.17596">
        <ele>312</ele>
        <time>2019-02-24T08:59:16.000Z</time>
      </trkpt>
      <trkpt lat="43.17857" lon="1.17598">
        <ele>312</ele>
        <time>2019-02-24T08:59:17.000Z</time>
      </trkpt>
      <trkpt lat="43.17861" lon="1.17599">
        <ele>312</ele>
        <time>2019-02-24T08:59:18.000Z</time>
      </trkpt>
      <trkpt lat="43.17864" lon="1.176">
        <ele>312</ele>
        <time>2019-02-24T08:59:19.000Z</time>
      </trkpt>
      <trkpt lat="43.17867" lon="1.17602">
        <ele>312</ele>
        <time>2019-02-24T08:59:20.000Z</time>
      </trkpt>
      <trkpt lat="43.17869" lon="1.17604">
        <ele>312</ele>
        <time>2019-02-24T08:59:21.000Z</time>
      </trkpt>
      <trkpt lat="43.17872" lon="1.17606">
        <ele>312</ele>
        <time>2019-02-24T08:59:22.000Z</time>
      </trkpt>
      <trkpt lat="43.17881" lon="1.17614">
        <ele>312</ele>
        <time>2019-02-24T08:59:26.000Z</time>
      </trkpt>
      <trkpt lat="43.17883" lon="1.17616">
        <ele>312</ele>
        <time>2019-02-24T08:59:27.000Z</time>
      </trkpt>
      <trkpt lat="43.17885" lon="1.17618">
        <ele>312</ele>
        <time>2019-02-24T08:59:28.000Z</time>
      </trkpt>
      <trkpt lat="43.17888" lon="1.17619">
        <ele>312</ele>
        <time>2019-02-24T08:59:29.000Z</time>
      </trkpt>
      <trkpt lat="43.1789" lon="1.17621">
        <ele>312</ele>
        <time>2019-02-24T08:59:30.000Z</time>
      </trkpt>
      <trkpt lat="43.17893" lon="1.17622">
        <ele>312</ele>
        <time>2019-02-24T08:59:31.000Z</time>
      </trkpt>
      <trkpt lat="43.17896" lon="1.17624">
        <ele>312</ele>
        <time>2019-02-24T08:59:32.000Z</time>
      </trkpt>
      <trkpt lat="43.17899" lon="1.17626">
        <ele>311.56</ele>
        <time>2019-02-24T08:59:33.000Z</time>
      </trkpt>
      <trkpt lat="43.17902" lon="1.17628">
        <ele>311</ele>
        <time>2019-02-24T08:59:34.000Z</time>
      </trkpt>
      <trkpt lat="43.17904" lon="1.1763">
        <ele>311</ele>
        <time>2019-02-24T08:59:35.000Z</time>
      </trkpt>
      <trkpt lat="43.17907" lon="1.17632">
        <ele>311</ele>
        <time>2019-02-24T08:59:36.000Z</time>
      </trkpt>
      <trkpt lat="43.17909" lon="1.17634">
        <ele>310.60869565217</ele>
        <time>2019-02-24T08:59:37.000Z</time>
      </trkpt>
      <trkpt lat="43.17912" lon="1.17635">
        <ele>310</ele>
        <time>2019-02-24T08:59:38.000Z</time>
      </trkpt>
      <trkpt lat="43.17914" lon="1.17637">
        <ele>310</ele>
        <time>2019-02-24T08:59:39.000Z</time>
      </trkpt>
      <trkpt lat="43.17917" lon="1.17639">
        <ele>310</ele>
        <time>2019-02-24T08:59:40.000Z</time>
      </trkpt>
      <trkpt lat="43.17919" lon="1.17641">
        <ele>310</ele>
        <time>2019-02-24T08:59:41.000Z</time>
      </trkpt>
      <trkpt lat="43.17921" lon="1.17643">
        <ele>309.61061836635</ele>
        <time>2019-02-24T08:59:42.000Z</time>
      </trkpt>
      <trkpt lat="43.17924" lon="1.17645">
        <ele>308.64367579338</ele>
        <time>2019-02-24T08:59:43.000Z</time>
      </trkpt>
      <trkpt lat="43.17926" lon="1.17647">
        <ele>308</ele>
        <time>2019-02-24T08:59:44.000Z</time>
      </trkpt>
      <trkpt lat="43.17932" lon="1.17651">
        <ele>309</ele>
        <time>2019-02-24T08:59:46.000Z</time>
      </trkpt>
      <trkpt lat="43.17934" lon="1.17653">
        <ele>309</ele>
        <time>2019-02-24T08:59:47.000Z</time>
      </trkpt>
      <trkpt lat="43.17937" lon="1.17655">
        <ele>309</ele>
        <time>2019-02-24T08:59:48.000Z</time>
      </trkpt>
      <trkpt lat="43.1794" lon="1.17657">
        <ele>309</ele>
        <time>2019-02-24T08:59:49.000Z</time>
      </trkpt>
      <trkpt lat="43.17943" lon="1.17658">
        <ele>309</ele>
        <time>2019-02-24T08:59:50.000Z</time>
      </trkpt>
      <trkpt lat="43.17946" lon="1.1766">
        <ele>309</ele>
        <time>2019-02-24T08:59:51.000Z</time>
      </trkpt>
      <trkpt lat="43.17948" lon="1.17663">
        <ele>309</ele>
        <time>2019-02-24T08:59:52.000Z</time>
      </trkpt>
      <trkpt lat="43.1795" lon="1.17665">
        <ele>309</ele>
        <time>2019-02-24T08:59:53.000Z</time>
      </trkpt>
      <trkpt lat="43.17953" lon="1.17667">
        <ele>309</ele>
        <time>2019-02-24T08:59:54.000Z</time>
      </trkpt>
      <trkpt lat="43.17955" lon="1.1767">
        <ele>309</ele>
        <time>2019-02-24T08:59:55.000Z</time>
      </trkpt>
      <trkpt lat="43.17957" lon="1.17672">
        <ele>308.6615401278</ele>
        <time>2019-02-24T08:59:56.000Z</time>
      </trkpt>
      <trkpt lat="43.1796" lon="1.17674">
        <ele>308</ele>
        <time>2019-02-24T08:59:57.000Z</time>
      </trkpt>
      <trkpt lat="43.17962" lon="1.17677">
        <ele>307.69444444444</ele>
        <time>2019-02-24T08:59:58.000Z</time>
      </trkpt>
      <trkpt lat="43.17964" lon="1.17679">
        <ele>307</ele>
        <time>2019-02-24T08:59:59.000Z</time>
      </trkpt>
      <trkpt lat="43.17966" lon="1.17681">
        <ele>307</ele>
        <time>2019-02-24T09:00:00.000Z</time>
      </trkpt>
      <trkpt lat="43.17968" lon="1.17684">
        <ele>307</ele>
        <time>2019-02-24T09:00:01.000Z</time>
      </trkpt>
      <trkpt lat="43.17975" lon="1.17692">
        <ele>307</ele>
        <time>2019-02-24T09:00:04.000Z</time>
      </trkpt>
      <trkpt lat="43.17984" lon="1.17701">
        <ele>307</ele>
        <time>2019-02-24T09:00:08.000Z</time>
      </trkpt>
      <trkpt lat="43.17993" lon="1.17708">
        <ele>307</ele>
        <time>2019-02-24T09:00:11.000Z</time>
      </trkpt>
      <trkpt lat="43.18001" lon="1.17714">
        <ele>307</ele>
        <time>2019-02-24T09:00:14.000Z</time>
      </trkpt>
      <trkpt lat="43.18009" lon="1.17721">
        <ele>307</ele>
        <time>2019-02-24T09:00:17.000Z</time>
      </trkpt>
      <trkpt lat="43.18019" lon="1.17729">
        <ele>307</ele>
        <time>2019-02-24T09:00:21.000Z</time>
      </trkpt>
      <trkpt lat="43.1803" lon="1.17736">
        <ele>307</ele>
        <time>2019-02-24T09:00:25.000Z</time>
      </trkpt>
      <trkpt lat="43.18039" lon="1.17744">
        <ele>307</ele>
        <time>2019-02-24T09:00:28.000Z</time>
      </trkpt>
      <trkpt lat="43.18047" lon="1.17752">
        <ele>307</ele>
        <time>2019-02-24T09:00:31.000Z</time>
      </trkpt>
      <trkpt lat="43.18054" lon="1.1776">
        <ele>306</ele>
        <time>2019-02-24T09:00:34.000Z</time>
      </trkpt>
      <trkpt lat="43.18062" lon="1.17766">
        <ele>307</ele>
        <time>2019-02-24T09:00:37.000Z</time>
      </trkpt>
      <trkpt lat="43.1807" lon="1.17773">
        <ele>306</ele>
        <time>2019-02-24T09:00:40.000Z</time>
      </trkpt>
      <trkpt lat="43.18079" lon="1.1778">
        <ele>306</ele>
        <time>2019-02-24T09:00:43.000Z</time>
      </trkpt>
      <trkpt lat="43.18087" lon="1.17787">
        <ele>306</ele>
        <time>2019-02-24T09:00:46.000Z</time>
      </trkpt>
      <trkpt lat="43.18095" lon="1.17794">
        <ele>306</ele>
        <time>2019-02-24T09:00:49.000Z</time>
      </trkpt>
      <trkpt lat="43.18104" lon="1.17801">
        <ele>305.58490816659</ele>
        <time>2019-02-24T09:00:52.000Z</time>
      </trkpt>
      <trkpt lat="43.18114" lon="1.17806">
        <ele>305</ele>
        <time>2019-02-24T09:00:56.000Z</time>
      </trkpt>
      <trkpt lat="43.18123" lon="1.17812">
        <ele>305</ele>
        <time>2019-02-24T09:00:59.000Z</time>
      </trkpt>
      <trkpt lat="43.18132" lon="1.17818">
        <ele>303</ele>
        <time>2019-02-24T09:01:02.000Z</time>
      </trkpt>
      <trkpt lat="43.1814" lon="1.17822">
        <ele>303.44</ele>
        <time>2019-02-24T09:01:05.000Z</time>
      </trkpt>
      <trkpt lat="43.18148" lon="1.17827">
        <ele>304</ele>
        <time>2019-02-24T09:01:08.000Z</time>
      </trkpt>
      <trkpt lat="43.18158" lon="1.17833">
        <ele>304</ele>
        <time>2019-02-24T09:01:11.000Z</time>
      </trkpt>
      <trkpt lat="43.18168" lon="1.17837">
        <ele>303</ele>
        <time>2019-02-24T09:01:14.000Z</time>
      </trkpt>
      <trkpt lat="43.18178" lon="1.17844">
        <ele>302.60360474637</ele>
        <time>2019-02-24T09:01:18.000Z</time>
      </trkpt>
      <trkpt lat="43.18189" lon="1.1785">
        <ele>302</ele>
        <time>2019-02-24T09:01:22.000Z</time>
      </trkpt>
      <trkpt lat="43.18199" lon="1.17855">
        <ele>302.43136984238</ele>
        <time>2019-02-24T09:01:25.000Z</time>
      </trkpt>
      <trkpt lat="43.18207" lon="1.1786">
        <ele>302</ele>
        <time>2019-02-24T09:01:28.000Z</time>
      </trkpt>
      <trkpt lat="43.18216" lon="1.17865">
        <ele>301</ele>
        <time>2019-02-24T09:01:31.000Z</time>
      </trkpt>
      <trkpt lat="43.18221" lon="1.17868">
        <ele>301</ele>
        <time>2019-02-24T09:01:33.000Z</time>
      </trkpt>
      <trkpt lat="43.18227" lon="1.17871">
        <ele>302</ele>
        <time>2019-02-24T09:01:35.000Z</time>
      </trkpt>
      <trkpt lat="43.1823" lon="1.17872">
        <ele>301.63636363636</ele>
        <time>2019-02-24T09:01:36.000Z</time>
      </trkpt>
      <trkpt lat="43.18239" lon="1.17877">
        <ele>301</ele>
        <time>2019-02-24T09:01:39.000Z</time>
      </trkpt>
      <trkpt lat="43.18242" lon="1.17878">
        <ele>301</ele>
        <time>2019-02-24T09:01:40.000Z</time>
      </trkpt>
      <trkpt lat="43.18245" lon="1.1788">
        <ele>301</ele>
        <time>2019-02-24T09:01:41.000Z</time>
      </trkpt>
      <trkpt lat="43.1825" lon="1.17884">
        <ele>301</ele>
        <time>2019-02-24T09:01:43.000Z</time>
      </trkpt>
      <trkpt lat="43.18258" lon="1.17888">
        <ele>300</ele>
        <time>2019-02-24T09:01:46.000Z</time>
      </trkpt>
      <trkpt lat="43.18266" lon="1.17894">
        <ele>300.44</ele>
        <time>2019-02-24T09:01:49.000Z</time>
      </trkpt>
      <trkpt lat="43.18276" lon="1.17901">
        <ele>299.6615401278</ele>
        <time>2019-02-24T09:01:52.000Z</time>
      </trkpt>
      <trkpt lat="43.18285" lon="1.17905">
        <ele>299.57732149219</ele>
        <time>2019-02-24T09:01:55.000Z</time>
      </trkpt>
      <trkpt lat="43.18294" lon="1.1791">
        <ele>298</ele>
        <time>2019-02-24T09:01:58.000Z</time>
      </trkpt>
      <trkpt lat="43.18304" lon="1.17914">
        <ele>299</ele>
        <time>2019-02-24T09:02:01.000Z</time>
      </trkpt>
      <trkpt lat="43.18313" lon="1.17919">
        <ele>298</ele>
        <time>2019-02-24T09:02:04.000Z</time>
      </trkpt>
      <trkpt lat="43.18322" lon="1.17925">
        <ele>298</ele>
        <time>2019-02-24T09:02:07.000Z</time>
      </trkpt>
      <trkpt lat="43.18333" lon="1.17931">
        <ele>297</ele>
        <time>2019-02-24T09:02:11.000Z</time>
      </trkpt>
      <trkpt lat="43.18341" lon="1.17938">
        <ele>297</ele>
        <time>2019-02-24T09:02:14.000Z</time>
      </trkpt>
      <trkpt lat="43.18351" lon="1.17942">
        <ele>297</ele>
        <time>2019-02-24T09:02:17.000Z</time>
      </trkpt>
      <trkpt lat="43.18361" lon="1.17948">
        <ele>297</ele>
        <time>2019-02-24T09:02:21.000Z</time>
      </trkpt>
      <trkpt lat="43.18371" lon="1.17953">
        <ele>297.56</ele>
        <time>2019-02-24T09:02:25.000Z</time>
      </trkpt>
      <trkpt lat="43.1838" lon="1.17961">
        <ele>298</ele>
        <time>2019-02-24T09:02:29.000Z</time>
      </trkpt>
      <trkpt lat="43.18389" lon="1.17965">
        <ele>299</ele>
        <time>2019-02-24T09:02:32.000Z</time>
      </trkpt>
      <trkpt lat="43.18398" lon="1.17969">
        <ele>298</ele>
        <time>2019-02-24T09:02:35.000Z</time>
      </trkpt>
      <trkpt lat="43.18406" lon="1.17974">
        <ele>298</ele>
        <time>2019-02-24T09:02:38.000Z</time>
      </trkpt>
      <trkpt lat="43.18415" lon="1.1798">
        <ele>298</ele>
        <time>2019-02-24T09:02:41.000Z</time>
      </trkpt>
      <trkpt lat="43.18426" lon="1.17986">
        <ele>298</ele>
        <time>2019-02-24T09:02:45.000Z</time>
      </trkpt>
      <trkpt lat="43.18433" lon="1.17992">
        <ele>298</ele>
        <time>2019-02-24T09:02:48.000Z</time>
      </trkpt>
      <trkpt lat="43.18441" lon="1.17997">
        <ele>298</ele>
        <time>2019-02-24T09:02:51.000Z</time>
      </trkpt>
      <trkpt lat="43.18452" lon="1.18003">
        <ele>298</ele>
        <time>2019-02-24T09:02:55.000Z</time>
      </trkpt>
      <trkpt lat="43.18461" lon="1.18008">
        <ele>297</ele>
        <time>2019-02-24T09:02:58.000Z</time>
      </trkpt>
      <trkpt lat="43.18466" lon="1.18013">
        <ele>297.29411954522</ele>
        <time>2019-02-24T09:03:00.000Z</time>
      </trkpt>
      <trkpt lat="43.18468" lon="1.18016">
        <ele>298</ele>
        <time>2019-02-24T09:03:01.000Z</time>
      </trkpt>
      <trkpt lat="43.18471" lon="1.18018">
        <ele>298</ele>
        <time>2019-02-24T09:03:02.000Z</time>
      </trkpt>
      <trkpt lat="43.18473" lon="1.1802">
        <ele>297.56</ele>
        <time>2019-02-24T09:03:03.000Z</time>
      </trkpt>
      <trkpt lat="43.18476" lon="1.18023">
        <ele>296.56</ele>
        <time>2019-02-24T09:03:04.000Z</time>
      </trkpt>
      <trkpt lat="43.18478" lon="1.18026">
        <ele>296</ele>
        <time>2019-02-24T09:03:05.000Z</time>
      </trkpt>
      <trkpt lat="43.1848" lon="1.18028">
        <ele>296.39784739044</ele>
        <time>2019-02-24T09:03:06.000Z</time>
      </trkpt>
      <trkpt lat="43.18483" lon="1.1803">
        <ele>297</ele>
        <time>2019-02-24T09:03:07.000Z</time>
      </trkpt>
      <trkpt lat="43.18486" lon="1.18032">
        <ele>297</ele>
        <time>2019-02-24T09:03:08.000Z</time>
      </trkpt>
      <trkpt lat="43.18494" lon="1.18039">
        <ele>297</ele>
        <time>2019-02-24T09:03:11.000Z</time>
      </trkpt>
      <trkpt lat="43.18497" lon="1.18042">
        <ele>297</ele>
        <time>2019-02-24T09:03:12.000Z</time>
      </trkpt>
      <trkpt lat="43.18501" lon="1.18048">
        <ele>297</ele>
        <time>2019-02-24T09:03:14.000Z</time>
      </trkpt>
      <trkpt lat="43.18511" lon="1.18059">
        <ele>296</ele>
        <time>2019-02-24T09:03:18.000Z</time>
      </trkpt>
      <trkpt lat="43.18518" lon="1.1807">
        <ele>295</ele>
        <time>2019-02-24T09:03:21.000Z</time>
      </trkpt>
      <trkpt lat="43.18527" lon="1.18081">
        <ele>294.56</ele>
        <time>2019-02-24T09:03:24.000Z</time>
      </trkpt>
      <trkpt lat="43.18535" lon="1.1809">
        <ele>293.66412295787</ele>
        <time>2019-02-24T09:03:27.000Z</time>
      </trkpt>
      <trkpt lat="43.18542" lon="1.18101">
        <ele>293</ele>
        <time>2019-02-24T09:03:30.000Z</time>
      </trkpt>
      <trkpt lat="43.18549" lon="1.1811">
        <ele>292</ele>
        <time>2019-02-24T09:03:33.000Z</time>
      </trkpt>
      <trkpt lat="43.18558" lon="1.18119">
        <ele>292.60360474637</ele>
        <time>2019-02-24T09:03:36.000Z</time>
      </trkpt>
      <trkpt lat="43.18566" lon="1.1813">
        <ele>292</ele>
        <time>2019-02-24T09:03:39.000Z</time>
      </trkpt>
      <trkpt lat="43.18574" lon="1.18139">
        <ele>292</ele>
        <time>2019-02-24T09:03:42.000Z</time>
      </trkpt>
      <trkpt lat="43.18582" lon="1.18152">
        <ele>291</ele>
        <time>2019-02-24T09:03:45.000Z</time>
      </trkpt>
      <trkpt lat="43.18588" lon="1.18167">
        <ele>290</ele>
        <time>2019-02-24T09:03:48.000Z</time>
      </trkpt>
      <trkpt lat="43.18593" lon="1.18181">
        <ele>288.6511676366</ele>
        <time>2019-02-24T09:03:51.000Z</time>
      </trkpt>
      <trkpt lat="43.18597" lon="1.18198">
        <ele>286.56</ele>
        <time>2019-02-24T09:03:54.000Z</time>
      </trkpt>
      <trkpt lat="43.18601" lon="1.18209">
        <ele>285</ele>
        <time>2019-02-24T09:03:56.000Z</time>
      </trkpt>
      <trkpt lat="43.18605" lon="1.18221">
        <ele>285</ele>
        <time>2019-02-24T09:03:58.000Z</time>
      </trkpt>
      <trkpt lat="43.18603" lon="1.18238">
        <ele>283</ele>
        <time>2019-02-24T09:04:01.000Z</time>
      </trkpt>
      <trkpt lat="43.18598" lon="1.18254">
        <ele>283</ele>
        <time>2019-02-24T09:04:04.000Z</time>
      </trkpt>
      <trkpt lat="43.18593" lon="1.18264">
        <ele>283</ele>
        <time>2019-02-24T09:04:06.000Z</time>
      </trkpt>
      <trkpt lat="43.18586" lon="1.18278">
        <ele>281.56</ele>
        <time>2019-02-24T09:04:09.000Z</time>
      </trkpt>
      <trkpt lat="43.18582" lon="1.1829">
        <ele>281</ele>
        <time>2019-02-24T09:04:12.000Z</time>
      </trkpt>
      <trkpt lat="43.18577" lon="1.18304">
        <ele>280</ele>
        <time>2019-02-24T09:04:15.000Z</time>
      </trkpt>
      <trkpt lat="43.18572" lon="1.18317">
        <ele>280</ele>
        <time>2019-02-24T09:04:18.000Z</time>
      </trkpt>
      <trkpt lat="43.18566" lon="1.18328">
        <ele>281</ele>
        <time>2019-02-24T09:04:21.000Z</time>
      </trkpt>
      <trkpt lat="43.18561" lon="1.18336">
        <ele>280.60360474637</ele>
        <time>2019-02-24T09:04:23.000Z</time>
      </trkpt>
      <trkpt lat="43.18559" lon="1.1834">
        <ele>280</ele>
        <time>2019-02-24T09:04:24.000Z</time>
      </trkpt>
      <trkpt lat="43.18558" lon="1.18343">
        <ele>280</ele>
        <time>2019-02-24T09:04:25.000Z</time>
      </trkpt>
      <trkpt lat="43.18555" lon="1.18351">
        <ele>280.41052830138</ele>
        <time>2019-02-24T09:04:27.000Z</time>
      </trkpt>
      <trkpt lat="43.18551" lon="1.18359">
        <ele>281</ele>
        <time>2019-02-24T09:04:29.000Z</time>
      </trkpt>
      <trkpt lat="43.18549" lon="1.18363">
        <ele>281</ele>
        <time>2019-02-24T09:04:30.000Z</time>
      </trkpt>
      <trkpt lat="43.18548" lon="1.18366">
        <ele>280.67164335931</ele>
        <time>2019-02-24T09:04:31.000Z</time>
      </trkpt>
      <trkpt lat="43.18546" lon="1.1837">
        <ele>280.1515069237</ele>
        <time>2019-02-24T09:04:32.000Z</time>
      </trkpt>
      <trkpt lat="43.18545" lon="1.18374">
        <ele>281</ele>
        <time>2019-02-24T09:04:33.000Z</time>
      </trkpt>
      <trkpt lat="43.18543" lon="1.18377">
        <ele>281</ele>
        <time>2019-02-24T09:04:34.000Z</time>
      </trkpt>
      <trkpt lat="43.18541" lon="1.18381">
        <ele>281</ele>
        <time>2019-02-24T09:04:35.000Z</time>
      </trkpt>
      <trkpt lat="43.1854" lon="1.18385">
        <ele>281</ele>
        <time>2019-02-24T09:04:36.000Z</time>
      </trkpt>
      <trkpt lat="43.18539" lon="1.18389">
        <ele>281.39130434783</ele>
        <time>2019-02-24T09:04:37.000Z</time>
      </trkpt>
      <trkpt lat="43.18537" lon="1.18393">
        <ele>282</ele>
        <time>2019-02-24T09:04:38.000Z</time>
      </trkpt>
      <trkpt lat="43.18535" lon="1.18397">
        <ele>282</ele>
        <time>2019-02-24T09:04:39.000Z</time>
      </trkpt>
      <trkpt lat="43.18534" lon="1.184">
        <ele>282</ele>
        <time>2019-02-24T09:04:40.000Z</time>
      </trkpt>
      <trkpt lat="43.18532" lon="1.18404">
        <ele>282</ele>
        <time>2019-02-24T09:04:41.000Z</time>
      </trkpt>
      <trkpt lat="43.18531" lon="1.18408">
        <ele>282</ele>
        <time>2019-02-24T09:04:42.000Z</time>
      </trkpt>
      <trkpt lat="43.18529" lon="1.18411">
        <ele>282</ele>
        <time>2019-02-24T09:04:43.000Z</time>
      </trkpt>
      <trkpt lat="43.18528" lon="1.18414">
        <ele>282</ele>
        <time>2019-02-24T09:04:44.000Z</time>
      </trkpt>
      <trkpt lat="43.18527" lon="1.18418">
        <ele>282</ele>
        <time>2019-02-24T09:04:45.000Z</time>
      </trkpt>
      <trkpt lat="43.18526" lon="1.18421">
        <ele>282</ele>
        <time>2019-02-24T09:04:46.000Z</time>
      </trkpt>
      <trkpt lat="43.18525" lon="1.18425">
        <ele>282.39784739044</ele>
        <time>2019-02-24T09:04:47.000Z</time>
      </trkpt>
      <trkpt lat="43.18525" lon="1.18428">
        <ele>283</ele>
        <time>2019-02-24T09:04:48.000Z</time>
      </trkpt>
      <trkpt lat="43.18525" lon="1.18432">
        <ele>283</ele>
        <time>2019-02-24T09:04:49.000Z</time>
      </trkpt>
      <trkpt lat="43.18524" lon="1.18435">
        <ele>283.41052830138</ele>
        <time>2019-02-24T09:04:50.000Z</time>
      </trkpt>
      <trkpt lat="43.18524" lon="1.18439">
        <ele>284</ele>
        <time>2019-02-24T09:04:51.000Z</time>
      </trkpt>
      <trkpt lat="43.18524" lon="1.18443">
        <ele>283.63636363636</ele>
        <time>2019-02-24T09:04:52.000Z</time>
      </trkpt>
      <trkpt lat="43.18523" lon="1.18447">
        <ele>283</ele>
        <time>2019-02-24T09:04:53.000Z</time>
      </trkpt>
      <trkpt lat="43.18522" lon="1.18451">
        <ele>283</ele>
        <time>2019-02-24T09:04:54.000Z</time>
      </trkpt>
      <trkpt lat="43.18522" lon="1.18455">
        <ele>283.43434526272</ele>
        <time>2019-02-24T09:04:55.000Z</time>
      </trkpt>
      <trkpt lat="43.18522" lon="1.1846">
        <ele>284</ele>
        <time>2019-02-24T09:04:56.000Z</time>
      </trkpt>
      <trkpt lat="43.18521" lon="1.18464">
        <ele>284</ele>
        <time>2019-02-24T09:04:57.000Z</time>
      </trkpt>
      <trkpt lat="43.18521" lon="1.18468">
        <ele>284.34108611742</ele>
        <time>2019-02-24T09:04:58.000Z</time>
      </trkpt>
      <trkpt lat="43.1852" lon="1.18472">
        <ele>285</ele>
        <time>2019-02-24T09:04:59.000Z</time>
      </trkpt>
      <trkpt lat="43.1852" lon="1.18476">
        <ele>285</ele>
        <time>2019-02-24T09:05:00.000Z</time>
      </trkpt>
      <trkpt lat="43.1852" lon="1.1848">
        <ele>285</ele>
        <time>2019-02-24T09:05:01.000Z</time>
      </trkpt>
      <trkpt lat="43.1852" lon="1.18484">
        <ele>285</ele>
        <time>2019-02-24T09:05:02.000Z</time>
      </trkpt>
      <trkpt lat="43.1852" lon="1.18488">
        <ele>285.18840203317</ele>
        <time>2019-02-24T09:05:03.000Z</time>
      </trkpt>
      <trkpt lat="43.1852" lon="1.18492">
        <ele>286</ele>
        <time>2019-02-24T09:05:04.000Z</time>
      </trkpt>
      <trkpt lat="43.1852" lon="1.18497">
        <ele>286</ele>
        <time>2019-02-24T09:05:05.000Z</time>
      </trkpt>
      <trkpt lat="43.1852" lon="1.18501">
        <ele>286</ele>
        <time>2019-02-24T09:05:06.000Z</time>
      </trkpt>
      <trkpt lat="43.1852" lon="1.18505">
        <ele>286</ele>
        <time>2019-02-24T09:05:07.000Z</time>
      </trkpt>
      <trkpt lat="43.18521" lon="1.18509">
        <ele>286.41666666667</ele>
        <time>2019-02-24T09:05:08.000Z</time>
      </trkpt>
      <trkpt lat="43.18523" lon="1.18521">
        <ele>287</ele>
        <time>2019-02-24T09:05:11.000Z</time>
      </trkpt>
      <trkpt lat="43.18527" lon="1.18532">
        <ele>287</ele>
        <time>2019-02-24T09:05:14.000Z</time>
      </trkpt>
      <trkpt lat="43.18531" lon="1.18544">
        <ele>287</ele>
        <time>2019-02-24T09:05:17.000Z</time>
      </trkpt>
      <trkpt lat="43.18535" lon="1.18559">
        <ele>287</ele>
        <time>2019-02-24T09:05:21.000Z</time>
      </trkpt>
      <trkpt lat="43.1854" lon="1.18573">
        <ele>287</ele>
        <time>2019-02-24T09:05:25.000Z</time>
      </trkpt>
      <trkpt lat="43.18546" lon="1.18585">
        <ele>287</ele>
        <time>2019-02-24T09:05:29.000Z</time>
      </trkpt>
      <trkpt lat="43.18549" lon="1.18592">
        <ele>287.41904889615</ele>
        <time>2019-02-24T09:05:31.000Z</time>
      </trkpt>
      <trkpt lat="43.1855" lon="1.18595">
        <ele>288</ele>
        <time>2019-02-24T09:05:32.000Z</time>
      </trkpt>
      <trkpt lat="43.18555" lon="1.18607">
        <ele>288</ele>
        <time>2019-02-24T09:05:36.000Z</time>
      </trkpt>
      <trkpt lat="43.18557" lon="1.1861">
        <ele>288</ele>
        <time>2019-02-24T09:05:37.000Z</time>
      </trkpt>
      <trkpt lat="43.18559" lon="1.18614">
        <ele>288</ele>
        <time>2019-02-24T09:05:38.000Z</time>
      </trkpt>
      <trkpt lat="43.18561" lon="1.18617">
        <ele>288</ele>
        <time>2019-02-24T09:05:39.000Z</time>
      </trkpt>
      <trkpt lat="43.18563" lon="1.1862">
        <ele>288</ele>
        <time>2019-02-24T09:05:40.000Z</time>
      </trkpt>
      <trkpt lat="43.18566" lon="1.18626">
        <ele>288</ele>
        <time>2019-02-24T09:05:42.000Z</time>
      </trkpt>
      <trkpt lat="43.18568" lon="1.18629">
        <ele>288.37778220244</ele>
        <time>2019-02-24T09:05:43.000Z</time>
      </trkpt>
      <trkpt lat="43.18569" lon="1.18633">
        <ele>289</ele>
        <time>2019-02-24T09:05:44.000Z</time>
      </trkpt>
      <trkpt lat="43.1857" lon="1.18636">
        <ele>289</ele>
        <time>2019-02-24T09:05:45.000Z</time>
      </trkpt>
      <trkpt lat="43.18571" lon="1.18639">
        <ele>289</ele>
        <time>2019-02-24T09:05:46.000Z</time>
      </trkpt>
      <trkpt lat="43.18572" lon="1.18642">
        <ele>289</ele>
        <time>2019-02-24T09:05:47.000Z</time>
      </trkpt>
      <trkpt lat="43.18573" lon="1.18646">
        <ele>289</ele>
        <time>2019-02-24T09:05:48.000Z</time>
      </trkpt>
      <trkpt lat="43.18574" lon="1.18649">
        <ele>289</ele>
        <time>2019-02-24T09:05:49.000Z</time>
      </trkpt>
      <trkpt lat="43.18575" lon="1.18652">
        <ele>289</ele>
        <time>2019-02-24T09:05:50.000Z</time>
      </trkpt>
      <trkpt lat="43.18575" lon="1.18655">
        <ele>289.44</ele>
        <time>2019-02-24T09:05:51.000Z</time>
      </trkpt>
      <trkpt lat="43.18576" lon="1.18658">
        <ele>290</ele>
        <time>2019-02-24T09:05:52.000Z</time>
      </trkpt>
      <trkpt lat="43.18577" lon="1.18662">
        <ele>290.41666666667</ele>
        <time>2019-02-24T09:05:53.000Z</time>
      </trkpt>
      <trkpt lat="43.18578" lon="1.18665">
        <ele>291</ele>
        <time>2019-02-24T09:05:54.000Z</time>
      </trkpt>
      <trkpt lat="43.18584" lon="1.18677">
        <ele>292</ele>
        <time>2019-02-24T09:05:58.000Z</time>
      </trkpt>
      <trkpt lat="43.18593" lon="1.18689">
        <ele>293</ele>
        <time>2019-02-24T09:06:02.000Z</time>
      </trkpt>
      <trkpt lat="43.186" lon="1.187">
        <ele>293</ele>
        <time>2019-02-24T09:06:06.000Z</time>
      </trkpt>
      <trkpt lat="43.18607" lon="1.1871">
        <ele>293</ele>
        <time>2019-02-24T09:06:10.000Z</time>
      </trkpt>
      <trkpt lat="43.18616" lon="1.1872">
        <ele>293</ele>
        <time>2019-02-24T09:06:14.000Z</time>
      </trkpt>
      <trkpt lat="43.18625" lon="1.18729">
        <ele>293</ele>
        <time>2019-02-24T09:06:18.000Z</time>
      </trkpt>
      <trkpt lat="43.18632" lon="1.1874">
        <ele>293</ele>
        <time>2019-02-24T09:06:22.000Z</time>
      </trkpt>
      <trkpt lat="43.18636" lon="1.18747">
        <ele>293</ele>
        <time>2019-02-24T09:06:25.000Z</time>
      </trkpt>
      <trkpt lat="43.18636" lon="1.18752">
        <ele>294.42857516033</ele>
        <time>2019-02-24T09:06:27.000Z</time>
      </trkpt>
      <trkpt lat="43.18636" lon="1.18756">
        <ele>295</ele>
        <time>2019-02-24T09:06:29.000Z</time>
      </trkpt>
      <trkpt lat="43.18636" lon="1.1876">
        <ele>295</ele>
        <time>2019-02-24T09:06:31.000Z</time>
      </trkpt>
      <trkpt lat="43.18635" lon="1.18764">
        <ele>296</ele>
        <time>2019-02-24T09:06:33.000Z</time>
      </trkpt>
      <trkpt lat="43.18634" lon="1.18767">
        <ele>296.39285714286</ele>
        <time>2019-02-24T09:06:35.000Z</time>
      </trkpt>
      <trkpt lat="43.18633" lon="1.1877">
        <ele>297</ele>
        <time>2019-02-24T09:06:36.000Z</time>
      </trkpt>
      <trkpt lat="43.18632" lon="1.18772">
        <ele>297</ele>
        <time>2019-02-24T09:06:37.000Z</time>
      </trkpt>
      <trkpt lat="43.18631" lon="1.18774">
        <ele>297</ele>
        <time>2019-02-24T09:06:38.000Z</time>
      </trkpt>
      <trkpt lat="43.1863" lon="1.18778">
        <ele>297</ele>
        <time>2019-02-24T09:06:40.000Z</time>
      </trkpt>
      <trkpt lat="43.18629" lon="1.1878">
        <ele>297</ele>
        <time>2019-02-24T09:06:41.000Z</time>
      </trkpt>
      <trkpt lat="43.18627" lon="1.18782">
        <ele>297</ele>
        <time>2019-02-24T09:06:42.000Z</time>
      </trkpt>
      <trkpt lat="43.18625" lon="1.18786">
        <ele>297</ele>
        <time>2019-02-24T09:06:44.000Z</time>
      </trkpt>
      <trkpt lat="43.18624" lon="1.18789">
        <ele>298</ele>
        <time>2019-02-24T09:06:47.000Z</time>
      </trkpt>
      <trkpt lat="43.18621" lon="1.18793">
        <ele>298</ele>
        <time>2019-02-24T09:06:49.000Z</time>
      </trkpt>
      <trkpt lat="43.1862" lon="1.18795">
        <ele>298</ele>
        <time>2019-02-24T09:06:50.000Z</time>
      </trkpt>
      <trkpt lat="43.18618" lon="1.18798">
        <ele>298</ele>
        <time>2019-02-24T09:06:52.000Z</time>
      </trkpt>
      <trkpt lat="43.18616" lon="1.18801">
        <ele>298</ele>
        <time>2019-02-24T09:06:54.000Z</time>
      </trkpt>
      <trkpt lat="43.18614" lon="1.18803">
        <ele>298.34108611742</ele>
        <time>2019-02-24T09:06:56.000Z</time>
      </trkpt>
      <trkpt lat="43.18611" lon="1.18803">
        <ele>299</ele>
        <time>2019-02-24T09:06:58.000Z</time>
      </trkpt>
      <trkpt lat="43.1861" lon="1.18803">
        <ele>298</ele>
        <time>2019-02-24T09:06:59.000Z</time>
      </trkpt>
    </trkseg>
  </trk>
</gpx>